SV836 / HZ-ARB 7700 Squawk Report (9th of December, 2019)

Aircraft B789 Reg No. HZ-ARB Age 4 years old
Model 787 Jet engines 2 First flight 22-12-15
Registered 03-02-16 Rollout N/A Delivered 03-02-16
Construction No. 41545 Line No. 0379 Series 9
ADSHEX 7100B4 Airline name Saudia Owner N/A
Airfield based Jeddah~ ~HZ First tracked 2017-07-13 05:05:00

Flight history for HZ-ARB

Route Flight No Date Playback
Mohammed V International (CMN) - King Khaled Intl (RUH) SV374 2020-01-19 02:54:00
King Khaled Intl (RUH) - Mohammed V International (CMN) SV375 2020-01-18 21:16:00
???? N/A 2020-01-18 11:42:00
Sir Seewoosagur Ramgoolam Intl (MRU) - King Abdulaziz Intl (JED) - King Khaled Intl (RUH) SV482 2020-01-17 20:50:00
George Bush Intercontinental (IAH) - King Khaled Intl (RUH) SV9060 2020-01-17 18:22:00
King Khaled Intl (RUH) - King Abdulaziz Intl (JED) SV1051 2020-01-14 20:08:00
King Abdulaziz Intl (JED) - King Khaled Intl (RUH) SV1044 2020-01-14 19:07:00
King Khaled Intl (RUH) - King Abdulaziz Intl (JED) SV1039 2020-01-14 13:40:00
King Abdulaziz Intl (JED) - King Khaled Intl (RUH) SV1032 2020-01-14 13:09:00
King Khaled Intl (RUH) - King Abdulaziz Intl (JED) SV1027 2020-01-14 11:06:00
King Abdulaziz Intl (JED) - King Khaled Intl (RUH) SV1020 2020-01-14 05:30:00
Charles De Gaulle (CDG) - King Abdulaziz Intl (JED) SV126 2020-01-13 20:54:00
King Abdulaziz Intl (JED) - Charles De Gaulle (CDG) SV127 2020-01-13 15:52:00
Mohammed V International (CMN) - King Abdulaziz Intl (JED) SV372 2020-01-13 08:57:00
King Abdulaziz Intl (JED) - Mohammed V International (CMN) SV373 2020-01-12 23:17:00
King Khaled Intl (RUH) - King Abdulaziz Intl (JED) SV1033 2020-01-12 11:07:00
King Abdulaziz Intl (JED) - King Khaled Intl (RUH) SV1026 2020-01-12 10:14:00
Dubai International (DXB) - King Abdulaziz Intl (JED) SV589 2020-01-11 18:31:00
King Abdulaziz Intl (JED) - Dubai International (DXB) SV588 2020-01-11 14:13:00
Mohammed V International (CMN) - Prince Mohammad Bin Abdulaziz (MED) - King Abdulaziz Intl (JED) SV372 2020-01-11 10:17:00
Time Lat Lon Altitude Heading Speed Vertical Rate
2019-12-09 07:46:35 GMT 1.332458 103.970512 475 22 144 -768
2019-12-09 07:46:30 GMT 1.328834 103.968971 550 22 143 -768
2019-12-09 07:46:23 GMT 1.324923 103.967316 650 23 141 -832
2019-12-09 07:46:19 GMT 1.322037 103.966087 675 22 141 -768
2019-12-09 07:46:10 GMT 1.316730 103.963860 800 22 140 -832
2019-12-09 07:46:07 GMT 1.314468 103.962975 850 23 140 -832
2019-12-09 07:45:59 GMT 1.310898 103.961433 900 23 139 -768
2019-12-09 07:45:56 GMT 1.308517 103.960411 975 23 139 -832
2019-12-09 07:45:52 GMT 1.306046 103.959343 1,025 23 140 -768
2019-12-09 07:45:44 GMT 1.301601 103.957466 1,075 23 138 -704
2019-12-09 07:45:39 GMT 1.299042 103.956406 1,150 22 137 -768
2019-12-09 07:45:35 GMT 1.296295 103.955292 1,175 22 138 -768
2019-12-09 07:45:23 GMT 1.288696 103.952080 1,350 23 139 -768
2019-12-09 07:45:14 GMT 1.283492 103.949844 1,450 23 140 -768
2019-12-09 07:45:05 GMT 1.275650 103.946541 1,600 23 140 -832
2019-12-09 07:44:57 GMT 1.273727 103.945747 1,650 23 140 -832
2019-12-09 07:44:54 GMT 1.271667 103.944862 1,700 22 141 -832
2019-12-09 07:44:46 GMT 1.267012 103.942932 1,775 23 142 -832
2019-12-09 07:44:42 GMT 1.264685 103.941933 1,925 23 142 -1024
2019-12-09 07:44:34 GMT 1.259145 103.939568 1,950 22 143 -768
2019-12-09 07:44:30 GMT 1.257614 103.938950 1,975 22 143 -768
2019-12-09 07:44:25 GMT 1.253815 103.937325 2,050 22 143 -832
2019-12-09 07:44:19 GMT 1.250290 103.935829 2,125 22 145 -832
2019-12-09 07:44:16 GMT 1.249054 103.935318 2,150 22 144 -832
2019-12-09 07:44:11 GMT 1.245071 103.933640 2,275 22 145 -832
2019-12-09 07:44:07 GMT 1.242526 103.932610 2,300 22 145 -896
2019-12-09 07:43:59 GMT 1.238480 103.930901 2,550 22 146 -832
2019-12-09 07:43:54 GMT 1.234891 103.929382 2,450 22 146 -896
2019-12-09 07:43:49 GMT 1.231865 103.928154 2,525 23 147 -576
2019-12-09 07:43:45 GMT 1.228638 103.926758 2,550 23 147 -128
2019-12-09 07:43:39 GMT 1.224838 103.925171 2,550 23 149 0
2019-12-09 07:43:33 GMT 1.222136 103.923988 2,550 23 149 0
2019-12-09 07:43:28 GMT 1.217834 103.922195 2,550 23 150 -64
2019-12-09 07:43:24 GMT 1.216049 103.921402 2,550 23 150 0
2019-12-09 07:43:16 GMT 1.210963 103.919250 2,550 23 150 0
2019-12-09 07:43:13 GMT 1.208403 103.918159 2,550 23 149 -64
2019-12-09 07:43:08 GMT 1.205237 103.916786 2,550 23 149 -64
2019-12-09 07:43:02 GMT 1.201996 103.915398 2,550 22 148 -64
2019-12-09 07:42:52 GMT 1.195415 103.912621 2,550 22 148 0
2019-12-09 07:42:46 GMT 1.191055 103.910789 2,550 22 148 -64
2019-12-09 07:42:41 GMT 1.188858 103.909904 2,550 22 148 -64
2019-12-09 07:42:33 GMT 1.182541 103.907249 2,550 22 147 0
2019-12-09 07:42:26 GMT 1.178703 103.905663 2,550 22 146 0
2019-12-09 07:42:20 GMT 1.175677 103.904427 2,550 22 147 64
2019-12-09 07:42:10 GMT 1.168808 103.901520 2,550 23 147 -64
2019-12-09 07:41:59 GMT 1.161246 103.898369 2,550 54 179 -1024
2019-12-09 07:41:37 GMT 1.147430 103.892395 2,550 23 151 128
2019-12-09 07:41:27 GMT 1.141937 103.890068 2,550 22 155 64
2019-12-09 07:41:18 GMT 1.135025 103.887321 2,550 21 157 64
2019-12-09 07:41:08 GMT 1.128799 103.884903 2,550 19 156 0
2019-12-09 07:40:58 GMT 1.121109 103.882668 2,550 40 158 -64
2019-12-09 07:40:47 GMT 1.114975 103.879128 2,550 45 158 -64
2019-12-09 07:40:35 GMT 1.108841 103.871307 2,550 54 162 -64
2019-12-09 07:40:25 GMT 1.104824 103.865738 2,550 54 165 -128
2019-12-09 07:40:15 GMT 1.100122 103.859016 2,550 54 172 -128
2019-12-09 07:40:03 GMT 1.094583 103.851341 2,625 54 178 -384
2019-12-09 07:39:54 GMT 1.089935 103.844963 2,700 53 179 -1024
2019-12-09 07:39:42 GMT 1.084527 103.837708 2,875 52 180 -960
2019-12-09 07:39:31 GMT 1.079081 103.830650 3,025 52 182 -896
2019-12-09 07:39:22 GMT 1.073547 103.823456 3,200 52 183 -1024
2019-12-09 07:39:11 GMT 1.067825 103.816101 3,425 51 182 -1216
2019-12-09 07:39:07 GMT 1.066223 103.814140 3,450 51 181 -1024
2019-12-09 07:38:59 GMT 1.062057 103.808838 3,650 84 184 -1152
2019-12-09 07:38:50 GMT 1.056736 103.802002 3,775 53 181 -1024
2019-12-09 07:38:40 GMT 1.052267 103.795090 3,925 63 181 -1088
2019-12-09 07:38:29 GMT 1.049800 103.785995 4,175 90 185 -1152
2019-12-09 07:38:19 GMT 1.050293 103.768753 4,475 91 192 -1088
2019-12-09 07:38:08 GMT 1.050293 103.768753 4,475 92 187 -1024
2019-12-09 07:37:56 GMT 1.050684 103.758766 4,800 92 191 -1024
2019-12-09 07:37:46 GMT 1.051103 103.748726 4,825 91 192 -960
2019-12-09 07:37:35 GMT 1.051382 103.739822 5,275 90 193 -1216
2019-12-09 07:37:24 GMT 1.051475 103.730400 5,275 90 193 -1216
2019-12-09 07:37:15 GMT 1.051615 103.721123 5,350 91 193 -832
2019-12-09 07:37:10 GMT 1.051666 103.717270 5,400 91 192 -1280
2019-12-09 07:37:02 GMT 1.051941 103.709824 5,550 92 192 -1024
2019-12-09 07:36:51 GMT 1.052267 103.700706 5,725 91 192 -896
2019-12-09 07:36:41 GMT 1.052490 103.691895 5,875 91 194 -1024
2019-12-09 07:36:31 GMT 1.052719 103.682587 6,025 90 195 -896
2019-12-09 07:36:20 GMT 1.052779 103.673576 6,175 90 198 -768
2019-12-09 07:36:15 GMT 1.052765 103.668015 6,300 90 207 -512
2019-12-09 07:36:11 GMT 1.052765 103.665039 6,275 85 240 0
2019-12-09 07:36:07 GMT 1.052825 103.660080 6,325 90 209 -576
2019-12-09 07:35:57 GMT 1.052902 103.650604 6,400 90 210 -576
2019-12-09 07:35:51 GMT 1.052948 103.645348 6,850 89 238 -576
2019-12-09 07:35:48 GMT 1.052965 103.642509 6,600 85 240 0
2019-12-09 07:35:40 GMT 1.053085 103.633942 6,550 90 220 -576
2019-12-09 07:35:31 GMT 1.053198 103.625221 6,850 89 238 -576
2019-12-09 07:35:28 GMT 1.053244 103.622147 6,675 90 226 -704
2019-12-09 07:35:25 GMT 1.053291 103.618172 6,700 90 228 -768
2019-12-09 07:35:19 GMT 1.053337 103.612015 6,775 90 230 -704
2019-12-09 07:35:13 GMT 1.053360 103.605263 6,850 89 238 -576
2019-12-09 07:35:08 GMT 1.053360 103.600517 6,850 89 238 -576
2019-12-09 07:35:03 GMT 1.053314 103.595444 6,900 84 243 -1088
2019-12-09 07:34:49 GMT 1.052307 103.579475 7,125 83 240 -1088
2019-12-09 07:34:44 GMT 1.051615 103.574272 7,225 82 241 -1088
2019-12-09 07:34:41 GMT 1.051163 103.571098 7,250 82 241 -1152
2019-12-09 07:34:36 GMT 1.050358 103.564987 7,350 82 241 -1216
2019-12-09 07:34:31 GMT 1.049652 103.559593 7,450 82 241 -1216
2019-12-09 07:34:24 GMT 1.048077 103.547989 7,700 349 256 -64
2019-12-09 07:34:20 GMT 1.048077 103.547989 7,700 84 243 -1088
2019-12-09 07:34:16 GMT 1.047318 103.542557 7,725 82 241 -1152
2019-12-09 07:34:04 GMT 1.045563 103.529617 7,925 82 242 -1088
2019-12-09 07:33:55 GMT 1.044120 103.518723 8,100 82 243 -1216
2019-12-09 07:33:43 GMT 1.042648 103.507225 8,375 83 242 -1408
2019-12-09 07:33:34 GMT 1.041321 103.495445 8,525 84 242 -1152
2019-12-09 07:33:22 GMT 1.040176 103.483620 8,700 84 243 -1024
2019-12-09 07:33:13 GMT 1.039124 103.472404 8,900 84 246 -1024
2019-12-09 07:33:04 GMT 1.037882 103.459816 8,950 349 256 -64
2019-12-09 07:33:01 GMT 1.037882 103.459816 9,025 84 247 -1088
2019-12-09 07:32:47 GMT 1.036206 103.442818 9,675 85 245 -1600
2019-12-09 07:32:41 GMT 1.035736 103.436371 9,475 85 244 -1408
2019-12-09 07:32:28 GMT 1.033320 103.422928 9,700 71 245 -1088
2019-12-09 07:32:20 GMT 1.028851 103.414215 9,825 46 249 -768
2019-12-09 07:32:08 GMT 1.019073 103.404625 10,050 3 254 -64
2019-12-09 07:32:02 GMT 1.012744 103.401283 10,025 22 252 -512
2019-12-09 07:31:59 GMT 1.008865 103.399971 10,050 15 252 -192
2019-12-09 07:31:47 GMT 0.996171 103.398537 10,050 356 255 0
2019-12-09 07:31:44 GMT 0.990957 103.399246 10,050 347 256 -64
2019-12-09 07:31:38 GMT 0.984695 103.401131 10,050 266 263 -128
2019-12-09 07:31:29 GMT 0.974808 103.407043 10,050 327 259 -64
2019-12-09 07:31:22 GMT 0.968857 103.413376 10,050 301 264 -64
2019-12-09 07:31:09 GMT 0.962814 103.426132 10,050 285 264 0
2019-12-09 07:31:03 GMT 0.961533 103.433624 10,050 279 263 0
2019-12-09 07:30:56 GMT 0.961807 103.443077 10,050 264 263 -64
2019-12-09 07:30:42 GMT 0.964188 103.460716 10,050 263 263 0
2019-12-09 07:30:39 GMT 0.964655 103.464218 10,050 263 262 -64
2019-12-09 07:30:28 GMT 0.966192 103.475060 10,050 262 262 -64
2019-12-09 07:30:18 GMT 0.968147 103.488510 10,050 262 263 -64
2019-12-09 07:30:08 GMT 0.969955 103.502106 10,075 263 262 0
2019-12-09 07:29:59 GMT 0.972802 103.515930 10,050 258 261 64
2019-12-09 07:29:55 GMT 0.972802 103.515930 10,050 249 261 -64
2019-12-09 07:29:49 GMT 0.975176 103.520950 10,050 237 260 -64
2019-12-09 07:29:43 GMT 0.980204 103.527672 10,050 230 259 0
2019-12-09 07:29:39 GMT 0.983276 103.530548 10,050 139 253 -64
2019-12-09 07:29:30 GMT 0.993890 103.536621 10,050 199 256 -64
2019-12-09 07:29:21 GMT 1.004013 103.538742 10,050 187 254 -64
2019-12-09 07:29:16 GMT 1.009918 103.538605 10,050 151 253 -64
2019-12-09 07:29:06 GMT 1.019531 103.536278 10,050 151 253 -64
2019-12-09 07:28:58 GMT 1.028758 103.530891 10,050 139 253 -64
2019-12-09 07:28:52 GMT 1.034592 103.525009 10,050 126 252 -64
2019-12-09 07:28:48 GMT 1.037018 103.521561 10,075 121 251 0
2019-12-09 07:28:39 GMT 1.041141 103.511856 10,050 99 250 64
2019-12-09 07:28:35 GMT 1.041779 103.508575 10,050 90 250 -64
2019-12-09 07:28:31 GMT 1.041962 103.503265 10,050 87 250 -128
2019-12-09 07:28:28 GMT 1.041641 103.499359 10,050 82 251 0
2019-12-09 07:28:24 GMT 1.041183 103.495911 10,050 82 250 0
2019-12-09 07:28:18 GMT 1.040163 103.488228 10,050 82 250 0
2019-12-09 07:28:06 GMT 1.038391 103.475800 10,050 82 249 -64
2019-12-09 07:27:55 GMT 1.036606 103.462814 10,050 81 248 -64
2019-12-09 07:27:45 GMT 1.034949 103.451340 10,050 81 248 0
2019-12-09 07:27:35 GMT 1.033173 103.438934 10,050 82 248 -64
2019-12-09 07:27:23 GMT 1.031616 103.426643 10,050 80 248 64
2019-12-09 07:27:12 GMT 1.027222 103.413551 10,050 62 248 -64
2019-12-09 07:27:02 GMT 1.021179 103.405602 10,050 41 249 -64
2019-12-09 07:26:52 GMT 1.011063 103.398293 10,050 25 250 0
2019-12-09 07:26:38 GMT 0.995147 103.394371 10,050 0 255 -64
2019-12-09 07:26:31 GMT 0.988257 103.394844 10,050 347 256 0
2019-12-09 07:26:27 GMT 0.982590 103.396149 10,050 341 257 0
2019-12-09 07:26:21 GMT 0.975128 103.399452 10,050 267 264 -128
2019-12-09 07:26:11 GMT 0.958878 103.418449 10,050 267 264 -128
2019-12-09 07:26:00 GMT 0.958878 103.418449 10,050 267 264 -128
2019-12-09 07:25:49 GMT 0.956416 103.431168 10,050 269 264 -64
2019-12-09 07:25:40 GMT 0.957367 103.442238 10,050 263 263 0
2019-12-09 07:25:36 GMT 0.957952 103.446465 10,050 263 263 0
2019-12-09 07:25:32 GMT 0.958511 103.450661 10,050 263 263 0
2019-12-09 07:25:26 GMT 0.959488 103.457542 10,050 263 263 -64
2019-12-09 07:25:10 GMT 0.962561 103.479515 10,050 263 263 0
2019-12-09 07:25:05 GMT 0.963445 103.485527 10,050 263 260 0
2019-12-09 07:24:40 GMT 0.967712 103.513229 10,050 257 259 -64
2019-12-09 07:24:35 GMT 0.969823 103.518959 10,050 245 258 -128
2019-12-09 07:24:24 GMT 0.976959 103.529526 10,125 206 256 -1280
2019-12-09 07:24:20 GMT 0.982066 103.533974 10,125 206 256 -1280
2019-12-09 07:24:15 GMT 0.986488 103.536766 10,175 208 256 -1216
2019-12-09 07:24:06 GMT 0.997147 103.540466 10,350 187 255 -1152
2019-12-09 07:24:03 GMT 0.998918 103.540741 10,375 187 255 -1152
2019-12-09 07:24:00 GMT 1.002090 103.541069 10,425 175 255 -1216
2019-12-09 07:23:54 GMT 1.011108 103.540512 10,575 164 255 -1344
2019-12-09 07:23:48 GMT 1.017746 103.538696 10,700 157 255 -1408
2019-12-09 07:23:40 GMT 1.026627 103.533852 10,875 135 252 -1536
2019-12-09 07:23:32 GMT 1.032575 103.528435 11,050 130 251 -1472
2019-12-09 07:23:29 GMT 1.035004 103.525429 11,125 125 250 -1408
2019-12-09 07:23:22 GMT 1.039232 103.518105 11,250 108 252 -1024
2019-12-09 07:23:12 GMT 1.041824 103.508804 11,375 97 254 -1088
2019-12-09 07:23:09 GMT 1.041979 103.504944 11,450 90 254 -1152
2019-12-09 07:23:02 GMT 1.040675 103.492729 11,650 81 258 -960
2019-12-09 07:22:50 GMT 1.039124 103.481247 11,750 81 258 -960
2019-12-09 07:22:45 GMT 1.038116 103.474358 11,850 82 261 -1280
2019-12-09 07:22:39 GMT 1.037417 103.469238 11,950 82 261 -1280
2019-12-09 07:22:34 GMT 1.036514 103.462677 12,050 82 261 -1280
2019-12-09 07:22:25 GMT 1.035095 103.452156 12,175 82 261 -1280
2019-12-09 07:22:16 GMT 1.033539 103.441124 12,350 82 262 -1280
2019-12-09 07:22:08 GMT 1.032074 103.430321 12,600 82 261 -1152
2019-12-09 07:21:56 GMT 1.030434 103.418663 12,725 76 263 -896
2019-12-09 07:21:47 GMT 1.018237 103.395836 12,900 11 267 -64
2019-12-09 07:21:35 GMT 1.018237 103.395836 12,975 43 266 -448
2019-12-09 07:21:28 GMT 1.009781 103.389305 13,000 31 266 -64
2019-12-09 07:21:25 GMT 1.008135 103.388405 13,000 27 267 -64
2019-12-09 07:21:13 GMT 0.994720 103.383766 13,000 341 271 0
2019-12-09 07:21:02 GMT 0.981033 103.383537 13,000 353 270 -64
2019-12-09 07:20:54 GMT 0.961945 103.391167 13,000 323 273 0
2019-12-09 07:20:47 GMT 0.961945 103.391167 13,000 323 273 0
2019-12-09 07:20:33 GMT 0.950455 103.403091 13,000 293 271 0
2019-12-09 07:20:24 GMT 0.945190 103.414215 13,000 287 271 0
2019-12-09 07:20:14 GMT 0.943381 103.426903 12,975 268 270 -64
2019-12-09 07:20:11 GMT 0.943542 103.429810 13,000 265 270 -64
2019-12-09 07:20:04 GMT 0.944778 103.439835 13,000 263 269 0
2019-12-09 07:19:52 GMT 0.946547 103.452667 12,975 263 270 0
2019-12-09 07:19:40 GMT 0.948921 103.469521 13,000 262 270 -256
2019-12-09 07:19:31 GMT 0.950457 103.480415 13,050 263 270 -704
2019-12-09 07:19:26 GMT 0.951202 103.486145 13,125 263 272 -1152
2019-12-09 07:19:14 GMT 0.954163 103.500290 13,350 256 272 -1344
2019-12-09 07:19:09 GMT 0.957550 103.507553 13,475 240 272 -1344
2019-12-09 07:18:57 GMT 0.965332 103.517372 13,700 223 270 -1408
2019-12-09 07:18:47 GMT 0.977371 103.525429 13,925 204 268 -1344
2019-12-09 07:18:44 GMT 0.979660 103.526405 13,975 200 269 -1280
2019-12-09 07:18:36 GMT 0.988083 103.528732 14,200 189 267 -1344
2019-12-09 07:18:29 GMT 0.997661 103.529335 14,275 178 267 -1408
2019-12-09 07:18:25 GMT 1.003061 103.528717 14,375 168 264 -1472
2019-12-09 07:18:15 GMT 1.014513 103.525162 14,600 153 263 -1216
2019-12-09 07:18:09 GMT 1.021635 103.520905 14,700 140 263 -1088
2019-12-09 07:18:04 GMT 1.026077 103.516953 14,775 135 263 -1088
2019-12-09 07:18:00 GMT 1.028915 103.513885 14,850 130 264 -832
2019-12-09 07:17:53 GMT 1.033972 103.507736 14,925 129 265 -640
2019-12-09 07:17:50 GMT 1.036765 103.504280 14,950 128 265 -512
2019-12-09 07:17:41 GMT 1.044159 103.495216 15,000 129 266 0
2019-12-09 07:17:32 GMT 1.050358 103.487656 15,000 128 267 -64
2019-12-09 07:17:21 GMT 1.059174 103.476830 15,000 128 267 -64
2019-12-09 07:17:18 GMT 1.066727 103.467606 15,000 129 268 0
2019-12-09 07:17:11 GMT 1.066727 103.467606 15,000 129 268 0
2019-12-09 07:17:06 GMT 1.071819 103.461327 15,000 128 268 -64
2019-12-09 07:17:01 GMT 1.075012 103.457413 15,000 129 268 -64
2019-12-09 07:16:56 GMT 1.078708 103.452850 15,000 128 268 -64
2019-12-09 07:16:51 GMT 1.083410 103.447075 15,000 129 268 0
2019-12-09 07:16:45 GMT 1.088058 103.441399 15,000 128 267 0
2019-12-09 07:16:40 GMT 1.091171 103.437584 15,000 128 267 0
2019-12-09 07:16:31 GMT 1.098447 103.428658 15,000 128 267 -64
2019-12-09 07:16:28 GMT 1.101891 103.424438 15,000 129 266 0
2019-12-09 07:16:24 GMT 1.104492 103.421288 15,000 129 266 0
2019-12-09 07:16:17 GMT 1.109482 103.415146 15,000 129 266 0
2019-12-09 07:16:12 GMT 1.112595 103.411324 14,975 129 266 64
2019-12-09 07:16:09 GMT 1.116028 103.407089 14,975 128 267 0
2019-12-09 07:16:02 GMT 1.121063 103.400948 14,975 128 268 0
2019-12-09 07:15:57 GMT 1.124888 103.396217 14,975 128 268 -64
2019-12-09 07:15:52 GMT 1.129497 103.390633 14,975 129 269 -128
2019-12-09 07:15:48 GMT 1.138156 103.379974 15,025 129 269 -384
2019-12-09 07:15:41 GMT 1.138156 103.379974 15,025 129 269 -448
2019-12-09 07:15:36 GMT 1.140856 103.376709 15,050 129 268 -640
2019-12-09 07:15:33 GMT 1.144867 103.371803 15,100 129 268 -1024
2019-12-09 07:15:30 GMT 1.146423 103.369896 15,150 128 268 -1344
2019-12-09 07:15:24 GMT 1.152494 103.362450 15,300 128 268 -1344
2019-12-09 07:15:18 GMT 1.155008 103.359375 15,375 128 268 -1280
2019-12-09 07:15:14 GMT 1.158127 103.355492 15,450 128 269 -1280
2019-12-09 07:15:10 GMT 1.166428 103.345314 15,575 128 270 -1216
2019-12-09 07:15:06 GMT 1.166428 103.345314 15,625 129 270 -1152
2019-12-09 07:15:03 GMT 1.166931 103.344711 15,650 129 271 -1152
2019-12-09 07:14:58 GMT 1.172012 103.338516 15,775 129 271 -1088
2019-12-09 07:14:54 GMT 1.174530 103.335403 15,825 129 271 -1024
2019-12-09 07:14:51 GMT 1.177958 103.331200 15,875 129 272 -832
2019-12-09 07:14:47 GMT 1.180618 103.327950 15,925 128 273 -768
2019-12-09 07:14:43 GMT 1.183502 103.324417 15,950 128 275 -512
2019-12-09 07:14:38 GMT 1.187851 103.319061 16,000 129 277 -64
2019-12-09 07:14:34 GMT 1.194810 103.310555 16,000 128 280 0
2019-12-09 07:14:30 GMT 1.194810 103.310555 16,000 129 282 0
2019-12-09 07:14:25 GMT 1.198255 103.306290 15,975 129 285 64
2019-12-09 07:14:21 GMT 1.201141 103.302788 15,975 128 290 64
2019-12-09 07:14:15 GMT 1.207286 103.295258 15,975 129 296 128
2019-12-09 07:14:12 GMT 1.209457 103.292572 15,975 129 298 128
2019-12-09 07:14:07 GMT 1.213244 103.287964 15,950 128 303 128
2019-12-09 07:14:03 GMT 1.218784 103.281143 15,950 128 308 0
2019-12-09 07:13:59 GMT 1.220306 103.279259 15,950 129 311 -64
2019-12-09 07:13:55 GMT 1.224701 103.273903 15,975 129 314 -128
2019-12-09 07:13:52 GMT 1.227814 103.270042 15,975 128 315 -64
2019-12-09 07:13:49 GMT 1.229957 103.267456 15,975 128 315 -64
2019-12-09 07:13:43 GMT 1.236145 103.259850 15,975 128 315 -64
2019-12-09 07:13:40 GMT 1.238342 103.257149 15,975 128 316 -128
2019-12-09 07:13:36 GMT 1.242599 103.251930 15,975 128 316 -192
2019-12-09 07:13:31 GMT 1.247772 103.245552 16,000 128 317 -576
2019-12-09 07:13:27 GMT 1.250114 103.242691 16,025 129 319 -704
2019-12-09 07:13:22 GMT 1.255646 103.235916 16,175 128 321 -1280
2019-12-09 07:13:19 GMT 1.257889 103.233170 16,150 128 320 -1216
2019-12-09 07:13:16 GMT 1.260315 103.230194 16,200 128 320 -1152
2019-12-09 07:13:08 GMT 1.268555 103.220047 16,375 128 321 -1280
2019-12-09 07:13:05 GMT 1.270798 103.217300 16,400 128 321 -1280
2019-12-09 07:12:59 GMT 1.277206 103.209427 16,550 128 321 -1280
2019-12-09 07:12:54 GMT 1.280777 103.205055 16,625 128 321 -1344
2019-12-09 07:12:47 GMT 1.290894 103.192627 16,825 129 322 -1280
2019-12-09 07:12:40 GMT 1.295609 103.186852 17,250 129 322 -1280
2019-12-09 07:12:37 GMT 1.297597 103.184448 16,975 129 322 -1344
2019-12-09 07:12:33 GMT 1.300552 103.180847 17,025 129 322 -1344
2019-12-09 07:12:30 GMT 1.303757 103.176933 17,250 128 321 -1280
2019-12-09 07:12:27 GMT 1.307144 103.172791 17,175 129 322 -1280
2019-12-09 07:12:22 GMT 1.310898 103.168182 17,250 128 321 -1280
2019-12-09 07:12:19 GMT 1.315018 103.163063 17,325 128 321 -1280
2019-12-09 07:12:15 GMT 1.317382 103.160202 17,375 128 321 -1280
2019-12-09 07:12:12 GMT 1.320780 103.156036 17,450 128 321 -1280
2019-12-09 07:12:09 GMT 1.327577 103.147697 17,675 128 321 -1664
2019-12-09 07:12:05 GMT 1.327577 103.147697 17,600 128 321 -1536
2019-12-09 07:11:59 GMT 1.334061 103.139740 17,775 128 320 -1344
2019-12-09 07:11:55 GMT 1.337402 103.135597 17,875 128 320 -1472
2019-12-09 07:11:48 GMT 1.344615 103.126770 17,975 129 320 -192
2019-12-09 07:11:44 GMT 1.347455 103.123314 18,000 129 320 -64
2019-12-09 07:11:39 GMT 1.351089 103.118843 18,000 129 319 0
2019-12-09 07:11:32 GMT 1.357603 103.110954 18,000 129 319 0
2019-12-09 07:11:29 GMT 1.361141 103.106598 17,975 129 319 0
2019-12-09 07:11:26 GMT 1.364167 103.102898 17,975 128 320 0
2019-12-09 07:11:22 GMT 1.367891 103.098305 17,975 128 320 -64
2019-12-09 07:11:16 GMT 1.375076 103.089462 17,975 128 322 -64
2019-12-09 07:11:11 GMT 1.378179 103.085617 17,975 129 322 -64
2019-12-09 07:11:07 GMT 1.381391 103.081688 17,975 129 323 -128
2019-12-09 07:11:01 GMT 1.387862 103.073776 17,975 129 325 -320
2019-12-09 07:10:56 GMT 1.391602 103.069214 18,025 128 327 -704
2019-12-09 07:10:53 GMT 1.395630 103.064232 18,100 128 329 -960
2019-12-09 07:10:49 GMT 1.398514 103.060699 18,125 128 329 -1088
2019-12-09 07:10:43 GMT 1.408951 103.047897 18,625 129 325 -2048
2019-12-09 07:10:38 GMT 1.408951 103.047897 18,350 128 329 -1920
2019-12-09 07:10:35 GMT 1.412535 103.043518 18,450 128 328 -2304
2019-12-09 07:10:28 GMT 1.419936 103.034378 18,725 129 325 -2048
2019-12-09 07:10:23 GMT 1.423462 103.030067 18,825 128 326 -2048
2019-12-09 07:10:18 GMT 1.429596 103.022522 19,025 129 327 -2624
2019-12-09 07:10:11 GMT 1.436788 103.013733 19,350 128 327 -2624
2019-12-09 07:10:07 GMT 1.440125 103.009628 19,475 129 328 -2624
2019-12-09 07:10:02 GMT 1.443678 103.005257 19,625 128 329 -2688
2019-12-09 07:09:58 GMT 1.447775 103.000282 19,800 129 329 -2688
2019-12-09 07:09:52 GMT 1.453780 102.992943 20,050 129 332 -2688
2019-12-09 07:09:48 GMT 1.457565 102.988304 20,225 129 332 -2624
2019-12-09 07:09:39 GMT 1.467316 102.976341 20,675 128 336 -2240
2019-12-09 07:09:35 GMT 1.471252 102.971458 20,725 128 338 -2240
2019-12-09 07:09:27 GMT 1.480362 102.960190 21,075 128 342 -2688
2019-12-09 07:09:24 GMT 1.481851 102.958374 21,150 128 342 -2688
2019-12-09 07:09:17 GMT 1.489066 102.949471 21,450 128 344 -2688
2019-12-09 07:09:12 GMT 1.493070 102.944496 21,600 128 344 -2688
2019-12-09 07:09:06 GMT 1.499727 102.936310 21,875 129 346 -2688
2019-12-09 07:09:03 GMT 1.503823 102.931335 22,050 129 347 -2688
2019-12-09 07:08:55 GMT 1.510899 102.922623 22,325 128 349 -2816
2019-12-09 07:08:52 GMT 1.514282 102.918434 22,475 128 349 -2816
2019-12-09 07:08:47 GMT 1.518768 102.912941 22,675 128 350 -2880
2019-12-09 07:08:41 GMT 1.525005 102.905243 23,100 128 351 -3072
2019-12-09 07:08:36 GMT 1.529800 102.899300 23,175 128 351 -3072
2019-12-09 07:08:33 GMT 1.535013 102.892838 23,400 128 351 -3008
2019-12-09 07:08:29 GMT 1.536876 102.890564 23,500 128 351 -3008
2019-12-09 07:08:25 GMT 1.540320 102.886253 23,875 128 353 -2752
2019-12-09 07:08:22 GMT 1.543900 102.881844 23,800 128 352 -2816
2019-12-09 07:08:19 GMT 1.547908 102.876877 23,975 128 353 -2688
2019-12-09 07:08:14 GMT 1.552963 102.870621 24,225 128 354 -2368
2019-12-09 07:08:08 GMT 1.559686 102.862244 24,375 128 360 -1600
2019-12-09 07:08:02 GMT 1.566669 102.853622 24,550 128 367 -1664
2019-12-09 07:07:54 GMT 1.574020 102.844460 24,725 128 371 -1664
2019-12-09 07:07:51 GMT 1.577609 102.840034 24,825 128 374 -1728
2019-12-09 07:07:42 GMT 1.587571 102.827766 25,100 128 384 -1792
2019-12-09 07:07:34 GMT 1.596725 102.816483 25,325 128 390 -1856
2019-12-09 07:07:31 GMT 1.598328 102.814529 25,450 128 394 -1856
2019-12-09 07:07:20 GMT 1.610987 102.798927 25,675 128 405 -1856
2019-12-09 07:07:10 GMT 1.623596 102.783478 25,975 128 416 -1664
2019-12-09 07:06:59 GMT 1.637146 102.766861 26,250 129 427 -1664
2019-12-09 07:06:48 GMT 1.651611 102.749214 26,550 129 436 -1728
2019-12-09 07:06:41 GMT 1.660751 102.738075 26,750 129 442 -1728
2019-12-09 07:06:37 GMT 1.664566 102.733482 26,825 129 445 -1728
2019-12-09 07:06:26 GMT 1.679626 102.715187 27,100 129 454 -1600
2019-12-09 07:06:16 GMT 1.693771 102.698151 27,300 129 463 -1408
2019-12-09 07:06:10 GMT 1.701462 102.688927 27,425 129 467 -2048
2019-12-09 07:06:05 GMT 1.708374 102.680641 27,575 129 466 -1984
2019-12-09 07:05:54 GMT 1.723618 102.662300 27,925 129 468 -2112
2019-12-09 07:05:46 GMT 1.736618 102.646568 28,225 129 470 -1920
2019-12-09 07:05:33 GMT 1.753143 102.626320 28,550 128 472 -1856
2019-12-09 07:05:21 GMT 1.768570 102.606674 28,875 127 474 -1728
2019-12-09 07:05:11 GMT 1.782485 102.588249 29,175 126 476 -1920
2019-12-09 07:05:00 GMT 1.796402 102.569618 29,500 126 479 -1984
2019-12-09 07:04:50 GMT 1.810835 102.550224 29,825 126 481 -2048
2019-12-09 07:04:37 GMT 1.827209 102.528229 30,175 126 481 -2112
2019-12-09 07:04:27 GMT 1.841537 102.509377 30,575 127 483 -2048
2019-12-09 07:04:17 GMT 1.855728 102.492012 30,875 131 486 -1600
2019-12-09 07:04:07 GMT 1.872564 102.474594 31,100 136 492 -1088
2019-12-09 07:03:56 GMT 1.889881 102.459541 31,275 140 499 -1280
2019-12-09 07:03:45 GMT 1.909712 102.443436 31,525 140 504 -1920
2019-12-09 07:03:33 GMT 1.932175 102.425354 31,975 140 506 -2880
2019-12-09 07:03:23 GMT 1.948770 102.411949 32,425 140 505 -3072
2019-12-09 07:03:15 GMT 1.965482 102.398399 32,850 140 503 -3200
2019-12-09 07:03:02 GMT 1.988339 102.379982 33,425 140 501 -3648
2019-12-09 07:02:51 GMT 2.009995 102.362366 34,275 140 493 -4032
2019-12-09 07:02:44 GMT 2.021851 102.352402 34,675 139 489 -3904
2019-12-09 07:02:41 GMT 2.027344 102.347656 34,875 137 487 -3712
2019-12-09 07:02:33 GMT 2.040431 102.335609 35,350 135 485 -3392
2019-12-09 07:02:28 GMT 2.048252 102.327560 35,575 132 482 -3072
2019-12-09 07:02:21 GMT 2.057465 102.316978 35,875 128 481 -2624
2019-12-09 07:02:18 GMT 2.060532 102.313164 35,975 127 481 -2496
2019-12-09 07:02:10 GMT 2.072067 102.297333 36,300 123 480 -2048
2019-12-09 07:02:07 GMT 2.074694 102.293465 36,400 123 481 -1920
2019-12-09 07:02:01 GMT 2.087728 102.273720 36,575 123 483 -1600
2019-12-09 07:01:58 GMT 2.087728 102.273720 36,650 123 483 -1536
2019-12-09 07:01:51 GMT 2.094727 102.263115 36,775 123 483 -1408
2019-12-09 07:01:47 GMT 2.101410 102.253014 36,850 123 484 -1152
2019-12-09 07:01:39 GMT 2.110958 102.238678 36,950 123 482 -576
2019-12-09 07:01:36 GMT 2.114502 102.233276 36,950 123 482 -512
2019-12-09 07:01:31 GMT 2.120827 102.223808 36,975 123 482 -64
2019-12-09 07:01:25 GMT 2.128098 102.212837 36,975 123 482 -64
2019-12-09 07:01:17 GMT 2.138330 102.197426 37,000 123 482 -64
2019-12-09 07:01:14 GMT 2.141373 102.192780 37,000 123 482 0
2019-12-09 07:01:07 GMT 2.150108 102.179527 37,000 123 482 -64
2019-12-09 07:01:02 GMT 2.154763 102.172470 37,000 123 482 0
2019-12-09 07:00:59 GMT 2.158953 102.166130 37,000 123 482 0
2019-12-09 07:00:56 GMT 2.163376 102.159447 37,000 123 482 64
2019-12-09 07:00:52 GMT 2.167969 102.152557 37,000 123 482 64
2019-12-09 07:00:49 GMT 2.171402 102.147385 37,000 123 482 64
2019-12-09 07:00:46 GMT 2.176177 102.140129 36,975 123 482 64
2019-12-09 07:00:42 GMT 2.185181 102.126579 36,975 123 482 64
2019-12-09 07:00:39 GMT 2.185181 102.126579 36,975 123 482 0
2019-12-09 07:00:35 GMT 2.189346 102.120247 36,975 123 482 0
2019-12-09 07:00:31 GMT 2.194891 102.111855 37,000 123 482 -64
2019-12-09 07:00:28 GMT 2.197359 102.108162 36,975 123 482 -64
2019-12-09 07:00:23 GMT 2.203629 102.098648 37,000 123 482 -64
2019-12-09 07:00:20 GMT 2.208438 102.091400 36,975 123 482 0
2019-12-09 07:00:17 GMT 2.210161 102.088799 36,975 123 482 0
2019-12-09 07:00:08 GMT 2.222855 102.069595 36,975 123 483 -64
2019-12-09 07:00:00 GMT 2.232832 102.054512 37,000 123 483 -64
2019-12-09 06:59:56 GMT 2.236276 102.049255 37,000 123 483 -64
2019-12-09 06:59:50 GMT 2.244935 102.036232 37,000 123 483 -64
2019-12-09 06:59:47 GMT 2.248489 102.030823 37,000 123 483 0
2019-12-09 06:59:42 GMT 2.254944 102.021088 37,000 123 483 0
2019-12-09 06:59:39 GMT 2.258528 102.015732 37,000 123 483 -64
2019-12-09 06:59:36 GMT 2.261581 102.011040 37,000 123 483 -64
2019-12-09 06:59:30 GMT 2.268265 102.000984 36,975 123 483 0
2019-12-09 06:59:25 GMT 2.275406 101.990181 36,975 123 483 -64
2019-12-09 06:59:20 GMT 2.281540 101.980873 37,000 123 483 0
2019-12-09 06:59:14 GMT 2.289642 101.968582 37,000 123 482 0
2019-12-09 06:59:07 GMT 2.298294 101.955544 36,975 123 482 0
2019-12-09 06:59:03 GMT 2.302613 101.949051 37,000 123 482 0
2019-12-09 06:58:55 GMT 2.312302 101.934364 37,000 123 482 0
2019-12-09 06:58:52 GMT 2.316010 101.928780 37,000 123 481 0
2019-12-09 06:58:43 GMT 2.326355 101.913185 36,975 123 481 0
2019-12-09 06:58:40 GMT 2.329559 101.908340 37,000 123 481 -64
2019-12-09 06:58:33 GMT 2.338738 101.894402 36,975 123 482 0
2019-12-09 06:58:30 GMT 2.343796 101.886787 37,000 123 482 -64
2019-12-09 06:58:27 GMT 2.346497 101.882690 36,975 123 482 0
2019-12-09 06:58:24 GMT 2.350708 101.876404 36,975 123 482 0
2019-12-09 06:58:20 GMT 2.355962 101.868408 36,975 123 482 -64
2019-12-09 06:58:17 GMT 2.359407 101.863152 36,975 123 482 -64
2019-12-09 06:58:13 GMT 2.363597 101.856850 36,975 123 482 0
2019-12-09 06:58:09 GMT 2.369614 101.847733 37,000 123 482 -64
2019-12-09 06:58:03 GMT 2.381927 101.829109 37,000 123 482 0
2019-12-09 06:57:59 GMT 2.381927 101.829109 36,975 123 482 0
2019-12-09 06:57:56 GMT 2.385476 101.823708 37,000 123 482 -64
2019-12-09 06:57:52 GMT 2.395113 101.809166 36,975 123 482 -64
2019-12-09 06:57:48 GMT 2.395113 101.809166 36,975 123 482 0
2019-12-09 06:57:45 GMT 2.398682 101.803787 36,975 123 482 0
2019-12-09 06:57:41 GMT 2.402002 101.798744 36,975 123 482 0
2019-12-09 06:57:38 GMT 2.406326 101.792236 36,975 123 482 0
2019-12-09 06:57:35 GMT 2.409805 101.787025 37,000 123 482 -64
2019-12-09 06:57:32 GMT 2.415207 101.778831 36,975 123 483 -64
2019-12-09 06:57:25 GMT 2.422852 101.767288 36,975 123 483 -64
2019-12-09 06:57:21 GMT 2.427521 101.760216 37,000 123 483 -64
2019-12-09 06:57:17 GMT 2.432867 101.752197 37,000 123 483 -64
2019-12-09 06:57:14 GMT 2.437912 101.744522 37,000 123 483 -64
2019-12-09 06:57:11 GMT 2.440842 101.740051 37,000 123 483 -64
2019-12-09 06:57:04 GMT 2.449722 101.726646 37,000 123 483 -64
2019-12-09 06:57:00 GMT 2.453201 101.721390 37,000 123 483 -64
2019-12-09 06:56:54 GMT 2.461729 101.708534 37,000 123 483 0
2019-12-09 06:56:50 GMT 2.465919 101.702194 36,975 123 482 0
2019-12-09 06:56:43 GMT 2.475632 101.687500 36,975 123 482 0
2019-12-09 06:56:40 GMT 2.478836 101.682655 37,000 123 482 0
2019-12-09 06:56:32 GMT 2.488678 101.667763 36,975 123 481 -64
2019-12-09 06:56:29 GMT 2.491755 101.663124 37,000 123 481 -64
2019-12-09 06:56:22 GMT 2.499622 101.651237 37,000 123 481 -64
2019-12-09 06:56:19 GMT 2.505112 101.642853 36,975 123 482 0
2019-12-09 06:56:12 GMT 2.512145 101.632248 37,000 123 481 -64
2019-12-09 06:56:09 GMT 2.516922 101.625023 37,000 123 481 -64
2019-12-09 06:56:01 GMT 2.525645 101.611839 36,975 123 480 64
2019-12-09 06:55:57 GMT 2.530766 101.604027 36,975 123 480 -64
2019-12-09 06:55:48 GMT 2.543056 101.585464 37,000 123 481 0
2019-12-09 06:55:40 GMT 2.552832 101.570595 37,000 123 482 -64
2019-12-09 06:55:37 GMT 2.555923 101.565903 37,000 123 482 -64
2019-12-09 06:55:29 GMT 2.566269 101.550308 36,975 123 482 0
2019-12-09 06:55:26 GMT 2.569590 101.545258 37,000 123 482 0
2019-12-09 06:55:18 GMT 2.579086 101.530945 37,000 123 483 0
2019-12-09 06:55:15 GMT 2.582904 101.525131 36,975 123 483 0
2019-12-09 06:55:07 GMT 2.591949 101.511528 37,000 123 483 -64
2019-12-09 06:55:03 GMT 2.598499 101.501640 36,975 123 483 -64
2019-12-09 06:54:55 GMT 2.608749 101.486160 37,000 123 484 -64
2019-12-09 06:54:52 GMT 2.611581 101.481850 37,000 123 484 -64
2019-12-09 06:54:44 GMT 2.622345 101.465584 37,000 123 484 64
2019-12-09 06:54:33 GMT 2.635666 101.445427 36,975 123 484 0
2019-12-09 06:54:25 GMT 2.645657 101.430283 36,975 123 483 0
2019-12-09 06:54:21 GMT 2.649846 101.423935 37,000 123 483 0
2019-12-09 06:54:14 GMT 2.659058 101.409950 37,000 123 483 -64
2019-12-09 06:54:11 GMT 2.662648 101.404564 36,975 123 483 -64
2019-12-09 06:54:03 GMT 2.672285 101.389984 37,000 123 483 -64
2019-12-09 06:54:00 GMT 2.675962 101.384392 37,000 123 483 -64
2019-12-09 06:53:52 GMT 2.686064 101.369148 37,000 123 482 0
2019-12-09 06:53:49 GMT 2.689975 101.363174 36,975 123 482 0
2019-12-09 06:53:40 GMT 2.703242 101.343102 36,975 123 480 64
2019-12-09 06:53:32 GMT 2.713669 101.327324 36,975 123 480 0
2019-12-09 06:53:29 GMT 2.713669 101.327324 37,000 123 480 -64
2019-12-09 06:53:26 GMT 2.718232 101.320465 37,000 123 480 0
2019-12-09 06:53:22 GMT 2.722000 101.314705 37,000 123 480 -64
2019-12-09 06:53:17 GMT 2.728867 101.304329 37,000 123 479 0
2019-12-09 06:53:12 GMT 2.734618 101.295601 37,000 123 480 0
2019-12-09 06:53:06 GMT 2.742554 101.283562 36,975 123 479 0
2019-12-09 06:53:01 GMT 2.747327 101.276375 36,975 123 479 0
2019-12-09 06:52:58 GMT 2.751343 101.270248 36,975 123 479 0
2019-12-09 06:52:55 GMT 2.755508 101.263969 37,000 123 478 0
2019-12-09 06:52:47 GMT 2.765991 101.248093 37,000 123 478 0
2019-12-09 06:52:44 GMT 2.768921 101.243622 36,975 123 478 0
2019-12-09 06:52:41 GMT 2.772465 101.238304 36,975 123 478 0
2019-12-09 06:52:36 GMT 2.778671 101.228867 36,975 123 478 -64
2019-12-09 06:52:33 GMT 2.792203 101.208420 36,975 123 477 0
2019-12-09 06:52:25 GMT 2.792203 101.208420 36,975 123 477 0
2019-12-09 06:52:22 GMT 2.795136 101.203972 36,975 123 477 -64
2019-12-09 06:52:18 GMT 2.799408 101.197533 37,000 123 477 -64
2019-12-09 06:52:12 GMT 2.808151 101.184265 37,000 123 477 -64
2019-12-09 06:52:08 GMT 2.812317 101.178032 36,975 123 477 -64
2019-12-09 06:52:04 GMT 2.817760 101.169731 36,975 123 477 -64
2019-12-09 06:52:01 GMT 2.821518 101.164017 37,000 123 477 0
2019-12-09 06:51:58 GMT 2.823486 101.161087 37,000 123 476 0
2019-12-09 06:51:52 GMT 2.832458 101.147491 37,000 123 476 -64
2019-12-09 06:51:49 GMT 2.834885 101.143814 36,975 123 476 0
2019-12-09 06:51:46 GMT 2.838895 101.137718 37,000 123 476 -64
2019-12-09 06:51:41 GMT 2.845825 101.127243 37,000 123 475 -64
2019-12-09 06:51:38 GMT 2.848480 101.123192 37,000 123 475 -64
2019-12-09 06:51:35 GMT 2.851639 101.118401 37,000 123 475 64
2019-12-09 06:51:31 GMT 2.858185 101.108482 37,000 123 475 0
2019-12-09 06:51:28 GMT 2.862076 101.102615 37,000 123 475 0
2019-12-09 06:51:24 GMT 2.864871 101.098373 37,000 123 475 0
2019-12-09 06:51:20 GMT 2.870087 101.090462 36,975 123 475 -64
2019-12-09 06:51:17 GMT 2.874089 101.084450 37,000 123 475 0
2019-12-09 06:51:11 GMT 2.882561 101.071564 37,000 123 475 -64
2019-12-09 06:51:06 GMT 2.888892 101.062004 37,000 123 475 0
2019-12-09 06:51:03 GMT 2.891080 101.058685 37,000 123 475 0
2019-12-09 06:50:59 GMT 2.896545 101.050430 36,975 123 475 0
2019-12-09 06:50:56 GMT 2.900530 101.044334 36,975 123 476 64
2019-12-09 06:50:52 GMT 2.904282 101.038651 37,000 123 476 0
2019-12-09 06:50:49 GMT 2.908218 101.032784 36,975 123 476 0
2019-12-09 06:50:45 GMT 2.913574 101.024689 36,975 123 477 0
2019-12-09 06:50:41 GMT 2.917801 101.018242 36,975 123 477 0
2019-12-09 06:50:36 GMT 2.924515 101.008118 37,000 123 478 -64
2019-12-09 06:50:33 GMT 2.927673 101.003319 37,000 123 479 -64
2019-12-09 06:50:28 GMT 2.934886 100.992439 37,000 123 478 -64
2019-12-09 06:50:25 GMT 2.936841 100.989456 37,000 123 478 -64
2019-12-09 06:50:22 GMT 2.942047 100.981529 37,000 123 479 -64
2019-12-09 06:50:19 GMT 2.944382 100.977997 37,000 123 479 -64
2019-12-09 06:50:16 GMT 2.948991 100.970985 37,000 123 479 -64
2019-12-09 06:50:13 GMT 2.953414 100.964310 37,000 123 479 -64
2019-12-09 06:50:09 GMT 2.956970 100.958954 37,000 123 479 -64
2019-12-09 06:50:04 GMT 2.964167 100.948021 36,975 123 478 0
2019-12-09 06:50:01 GMT 2.967566 100.942856 37,000 123 478 0
2019-12-09 06:49:56 GMT 2.973943 100.933243 36,975 123 478 0
2019-12-09 06:49:52 GMT 2.977707 100.927483 37,000 123 478 0
2019-12-09 06:49:49 GMT 2.981997 100.921028 37,000 123 478 0
2019-12-09 06:49:45 GMT 2.986267 100.914543 37,000 123 478 -64
2019-12-09 06:49:42 GMT 2.989929 100.909004 37,000 123 478 -64
2019-12-09 06:49:38 GMT 2.995789 100.900162 37,000 123 478 0
2019-12-09 06:49:35 GMT 2.999314 100.894791 37,000 123 478 0
2019-12-09 06:49:32 GMT 3.003342 100.888710 37,000 123 478 0
2019-12-09 06:49:27 GMT 3.007462 100.882423 37,000 123 478 0
2019-12-09 06:49:24 GMT 3.012131 100.875397 37,000 123 478 -64
2019-12-09 06:49:21 GMT 3.016632 100.868561 37,000 123 478 0
2019-12-09 06:49:17 GMT 3.020775 100.862259 37,000 123 478 -64
2019-12-09 06:49:13 GMT 3.025663 100.854874 37,000 123 478 0
2019-12-09 06:49:10 GMT 3.029663 100.848763 37,000 123 478 -64
2019-12-09 06:49:06 GMT 3.034561 100.841362 37,000 123 478 0
2019-12-09 06:49:02 GMT 3.038452 100.835449 37,000 123 478 0
2019-12-09 06:48:59 GMT 3.042980 100.828636 37,000 123 479 0
2019-12-09 06:48:56 GMT 3.047123 100.822334 37,000 123 479 0
2019-12-09 06:48:53 GMT 3.049438 100.818832 36,975 123 479 64
2019-12-09 06:48:50 GMT 3.053101 100.813248 36,975 123 479 0
2019-12-09 06:48:45 GMT 3.060298 100.802353 36,975 123 479 0
2019-12-09 06:48:42 GMT 3.062851 100.798447 36,975 123 479 -64
2019-12-09 06:48:39 GMT 3.067141 100.791985 37,000 123 479 -64
2019-12-09 06:48:35 GMT 3.072372 100.784012 37,000 123 480 -64
2019-12-09 06:48:31 GMT 3.076172 100.778252 37,000 123 480 -64
2019-12-09 06:48:28 GMT 3.079384 100.773422 36,975 123 480 0
2019-12-09 06:48:24 GMT 3.086609 100.762459 36,975 123 480 -64
2019-12-09 06:48:21 GMT 3.089035 100.758736 37,000 123 481 -64
2019-12-09 06:48:15 GMT 3.096405 100.747604 37,000 123 480 -64
2019-12-09 06:48:12 GMT 3.098982 100.743683 37,000 123 481 -64
2019-12-09 06:48:09 GMT 3.102427 100.738518 37,000 123 481 -64
2019-12-09 06:48:05 GMT 3.109271 100.728104 37,000 123 481 -64
2019-12-09 06:48:01 GMT 3.114304 100.720467 37,000 123 481 -64
2019-12-09 06:47:57 GMT 3.119093 100.713188 37,000 123 481 0
2019-12-09 06:47:54 GMT 3.123413 100.706688 37,000 123 481 -64
2019-12-09 06:47:50 GMT 3.127808 100.699982 37,000 123 481 0
2019-12-09 06:47:46 GMT 3.132128 100.693489 36,975 123 480 0
2019-12-09 06:47:43 GMT 3.136917 100.686249 36,975 123 480 0
2019-12-09 06:47:40 GMT 3.139204 100.682739 36,975 123 480 0
2019-12-09 06:47:37 GMT 3.142648 100.677528 36,975 123 480 0
2019-12-09 06:47:34 GMT 3.145814 100.672699 36,975 123 480 0
2019-12-09 06:47:30 GMT 3.152573 100.662460 37,000 123 480 -64
2019-12-09 06:47:27 GMT 3.158569 100.653374 37,000 123 480 -64
2019-12-09 06:47:18 GMT 3.165413 100.643005 36,975 123 480 0
2019-12-09 06:47:13 GMT 3.171744 100.633347 37,000 123 480 0
2019-12-09 06:47:08 GMT 3.178075 100.623688 37,000 123 479 -64
2019-12-09 06:47:02 GMT 3.184799 100.613487 37,000 123 479 0
2019-12-09 06:46:59 GMT 3.189294 100.606636 37,000 123 479 0
2019-12-09 06:46:56 GMT 3.192180 100.602188 37,000 123 479 0
2019-12-09 06:46:53 GMT 3.197433 100.594215 37,000 123 479 0
2019-12-09 06:46:49 GMT 3.201956 100.587364 37,000 123 479 0
2019-12-09 06:46:46 GMT 3.205354 100.582153 37,000 123 479 0
2019-12-09 06:46:42 GMT 3.210571 100.574203 37,000 123 479 0
2019-12-09 06:46:36 GMT 3.218529 100.562172 37,000 123 478 -64
2019-12-09 06:46:32 GMT 3.221182 100.558098 37,000 123 478 -64
2019-12-09 06:46:29 GMT 3.224813 100.552559 36,975 123 478 -64
2019-12-09 06:46:25 GMT 3.231656 100.542191 36,975 123 478 0
2019-12-09 06:46:20 GMT 3.237243 100.533661 37,000 123 478 -64
2019-12-09 06:46:16 GMT 3.241619 100.527031 37,000 123 478 -64
2019-12-09 06:46:13 GMT 3.249527 100.514984 37,000 123 477 -64
2019-12-09 06:46:10 GMT 3.249527 100.514984 37,000 123 477 -64
2019-12-09 06:46:06 GMT 3.254234 100.507759 37,000 123 477 -64
2019-12-09 06:46:02 GMT 3.257996 100.502045 37,000 123 477 -64
2019-12-09 06:45:59 GMT 3.262241 100.495590 37,000 123 477 0
2019-12-09 06:45:55 GMT 3.270760 100.482613 36,975 123 476 0
2019-12-09 06:45:49 GMT 3.274750 100.476532 37,000 123 477 0
2019-12-09 06:45:43 GMT 3.282028 100.465454 36,975 123 477 64
2019-12-09 06:45:40 GMT 3.284454 100.461777 36,975 123 476 0
2019-12-09 06:45:37 GMT 3.287985 100.456429 36,975 123 476 0
2019-12-09 06:45:34 GMT 3.291616 100.450890 36,975 123 476 0
2019-12-09 06:45:31 GMT 3.297089 100.442596 36,975 123 476 0
2019-12-09 06:45:27 GMT 3.300880 100.436920 37,000 123 477 -64
2019-12-09 06:45:24 GMT 3.304511 100.431374 37,000 123 476 0
2019-12-09 06:45:20 GMT 3.310330 100.422569 37,000 123 476 0
2019-12-09 06:45:17 GMT 3.313728 100.417404 37,000 123 476 0
2019-12-09 06:45:14 GMT 3.317406 100.411865 37,000 123 476 -64
2019-12-09 06:45:10 GMT 3.321781 100.405235 36,975 123 476 0
2019-12-09 06:45:07 GMT 3.326019 100.398842 36,975 123 476 0
2019-12-09 06:45:03 GMT 3.329835 100.393112 37,000 123 477 0
2019-12-09 06:44:58 GMT 3.337280 100.381897 36,975 123 477 64
2019-12-09 06:44:55 GMT 3.339706 100.378220 36,975 123 477 -64
2019-12-09 06:44:50 GMT 3.347385 100.366646 37,000 123 477 -64
2019-12-09 06:44:47 GMT 3.351196 100.360901 36,975 123 477 -64
2019-12-09 06:44:43 GMT 3.355485 100.354469 37,000 123 478 0
2019-12-09 06:44:38 GMT 3.363922 100.341766 37,000 123 481 -64
2019-12-09 06:44:31 GMT 3.369049 100.334038 36,975 123 478 0
2019-12-09 06:44:26 GMT 3.376694 100.322586 37,000 123 478 0
2019-12-09 06:44:22 GMT 3.381229 100.315781 37,000 123 478 -64
2019-12-09 06:44:15 GMT 3.389794 100.302856 36,975 123 479 0
2019-12-09 06:44:11 GMT 3.393356 100.297493 37,000 123 479 0
2019-12-09 06:44:04 GMT 3.403527 100.282158 36,975 123 479 -64
2019-12-09 06:43:59 GMT 3.407822 100.275665 37,000 123 479 0
2019-12-09 06:43:53 GMT 3.416702 100.262344 36,975 123 480 -64
2019-12-09 06:43:49 GMT 3.420410 100.256760 37,000 123 480 -64
2019-12-09 06:43:45 GMT 3.427176 100.246597 36,975 123 481 -64
2019-12-09 06:43:42 GMT 3.430155 100.242149 37,000 123 480 -64
2019-12-09 06:43:39 GMT 3.433088 100.237694 37,000 123 480 -64
2019-12-09 06:43:33 GMT 3.440955 100.225807 36,975 123 481 -64
2019-12-09 06:43:28 GMT 3.446355 100.217613 36,975 123 481 0
2019-12-09 06:43:23 GMT 3.456876 100.201561 36,975 122 482 -64
2019-12-09 06:43:17 GMT 3.459297 100.197823 36,975 122 482 -64
2019-12-09 06:43:12 GMT 3.467285 100.185211 37,000 121 481 0
2019-12-09 06:43:09 GMT 3.470004 100.180824 36,975 121 482 0
2019-12-09 06:43:06 GMT 3.472229 100.177200 37,000 121 482 -64
2019-12-09 06:43:01 GMT 3.479645 100.165009 37,000 121 483 0
2019-12-09 06:42:58 GMT 3.482061 100.160980 37,000 121 483 0
2019-12-09 06:42:55 GMT 3.485087 100.156006 36,975 121 482 0
2019-12-09 06:42:49 GMT 3.492070 100.144547 36,975 121 483 64
2019-12-09 06:42:45 GMT 3.497543 100.135590 36,975 121 483 0
2019-12-09 06:42:41 GMT 3.502730 100.126976 36,975 121 483 0
2019-12-09 06:42:37 GMT 3.507385 100.119308 36,975 121 483 0
2019-12-09 06:42:34 GMT 3.509857 100.115334 36,975 121 483 0
2019-12-09 06:42:29 GMT 3.517044 100.103462 36,975 121 483 0
2019-12-09 06:42:26 GMT 3.519836 100.098854 36,975 121 483 0
2019-12-09 06:42:23 GMT 3.522858 100.093925 36,975 121 483 0
2019-12-09 06:42:16 GMT 3.532011 100.078773 36,975 121 484 -64
2019-12-09 06:42:12 GMT 3.535736 100.072662 37,000 121 483 -64
2019-12-09 06:42:07 GMT 3.542633 100.061378 37,000 121 484 -64
2019-12-09 06:42:04 GMT 3.545197 100.057190 37,000 121 484 0
2019-12-09 06:42:01 GMT 3.547989 100.052582 37,000 121 484 0
2019-12-09 06:41:56 GMT 3.554822 100.041313 36,975 121 484 0
2019-12-09 06:41:53 GMT 3.558929 100.034615 36,975 121 484 0
2019-12-09 06:41:50 GMT 3.560532 100.031914 37,000 121 484 -64
2019-12-09 06:41:43 GMT 3.570328 100.015854 36,975 121 483 0
2019-12-09 06:41:40 GMT 3.573120 100.011292 36,975 121 483 0
2019-12-09 06:41:32 GMT 3.582753 99.995430 37,000 121 482 0
2019-12-09 06:41:29 GMT 3.585500 99.990837 36,975 121 482 0
2019-12-09 06:41:24 GMT 3.592716 99.978996 37,000 121 482 -64
2019-12-09 06:41:21 GMT 3.595825 99.973816 37,000 121 482 -64
2019-12-09 06:41:17 GMT 3.598721 99.969048 37,000 121 482 -64
2019-12-09 06:41:14 GMT 3.603470 99.961250 37,000 121 482 -64
2019-12-09 06:41:11 GMT 3.611115 99.948677 37,000 121 482 0
2019-12-09 06:41:02 GMT 3.617947 99.937416 37,000 121 481 0
2019-12-09 06:40:56 GMT 3.623154 99.928848 36,975 121 481 0
2019-12-09 06:40:51 GMT 3.630341 99.917023 37,000 121 481 0
2019-12-09 06:40:48 GMT 3.633820 99.911301 36,975 121 481 0
2019-12-09 06:40:45 GMT 3.636009 99.907677 37,000 121 481 0
2019-12-09 06:40:38 GMT 3.649292 99.885788 36,975 121 481 0
2019-12-09 06:40:29 GMT 3.655701 99.875290 37,000 121 481 -64
2019-12-09 06:40:26 GMT 3.659146 99.869606 37,000 121 481 0
2019-12-09 06:40:23 GMT 3.661331 99.865952 37,000 121 481 -64
2019-12-09 06:40:18 GMT 3.669205 99.853012 37,000 121 481 0
2019-12-09 06:40:15 GMT 3.672785 99.847115 37,000 121 481 0
2019-12-09 06:40:09 GMT 3.679596 99.835884 37,000 121 481 0
2019-12-09 06:40:06 GMT 3.686425 99.824615 37,000 121 481 0
2019-12-09 06:40:02 GMT 3.686425 99.824615 37,000 121 481 0
2019-12-09 06:39:57 GMT 3.693594 99.812828 36,975 121 481 0
2019-12-09 06:39:54 GMT 3.695801 99.809212 36,975 121 481 0
2019-12-09 06:39:47 GMT 3.703674 99.796265 36,975 121 481 64
2019-12-09 06:39:44 GMT 3.708527 99.788307 36,975 121 481 0
2019-12-09 06:39:40 GMT 3.710958 99.784271 36,975 121 481 0
2019-12-09 06:39:35 GMT 3.723312 99.763916 36,975 121 481 -64
2019-12-09 06:39:30 GMT 3.723312 99.763916 37,000 121 481 0
2019-12-09 06:39:25 GMT 3.729207 99.754204 37,000 121 481 -128
2019-12-09 06:39:22 GMT 3.733978 99.746407 37,000 121 481 -128
2019-12-09 06:39:16 GMT 3.740433 99.735703 36,975 121 482 -64
2019-12-09 06:39:12 GMT 3.744010 99.729813 37,000 121 482 -64
2019-12-09 06:39:08 GMT 3.748535 99.722389 37,000 121 482 -64
2019-12-09 06:39:03 GMT 3.756254 99.709595 37,000 121 481 0
2019-12-09 06:39:00 GMT 3.759613 99.704094 37,000 121 481 0
2019-12-09 06:38:55 GMT 3.764465 99.696083 36,975 121 481 0
2019-12-09 06:38:49 GMT 3.770966 99.685379 37,000 121 481 0
2019-12-09 06:38:44 GMT 3.777191 99.675140 37,000 121 481 0
2019-12-09 06:38:40 GMT 3.782602 99.666168 37,000 121 480 -64
2019-12-09 06:38:36 GMT 3.788956 99.655724 36,975 121 480 -64
2019-12-09 06:38:33 GMT 3.788956 99.655724 37,000 121 480 -64
2019-12-09 06:38:30 GMT 3.794037 99.647346 37,000 121 480 0
2019-12-09 06:38:27 GMT 3.796555 99.643158 37,000 121 480 -64
2019-12-09 06:38:22 GMT 3.801178 99.635567 37,000 121 480 0
2019-12-09 06:38:19 GMT 3.810766 99.619759 37,000 121 480 64
2019-12-09 06:38:14 GMT 3.810766 99.619759 36,975 121 480 0
2019-12-09 06:38:10 GMT 3.816073 99.611046 36,975 121 480 0
2019-12-09 06:38:07 GMT 3.819285 99.605743 36,975 121 480 0
2019-12-09 06:38:03 GMT 3.823428 99.598877 37,000 121 480 0
2019-12-09 06:38:00 GMT 3.828415 99.590736 36,975 121 480 -64
2019-12-09 06:37:55 GMT 3.834042 99.581406 36,975 121 480 0
2019-12-09 06:37:51 GMT 3.844191 99.564690 37,000 121 480 0
2019-12-09 06:37:46 GMT 3.844191 99.564690 37,000 121 480 0
2019-12-09 06:37:41 GMT 3.850067 99.555031 37,000 121 480 -64
2019-12-09 06:37:36 GMT 3.856293 99.544792 37,000 121 480 0
2019-12-09 06:37:33 GMT 3.858668 99.540771 37,000 121 479 0
2019-12-09 06:37:26 GMT 3.867932 99.525620 36,975 121 479 0
2019-12-09 06:37:23 GMT 3.871262 99.520119 36,975 121 479 0
2019-12-09 06:37:19 GMT 3.875885 99.512527 36,975 121 479 0
2019-12-09 06:37:15 GMT 3.881378 99.503410 37,000 121 479 -64
2019-12-09 06:37:12 GMT 3.883574 99.499809 37,000 121 479 -64
2019-12-09 06:37:08 GMT 3.886553 99.494888 36,975 121 479 0
2019-12-09 06:37:05 GMT 3.891953 99.485947 37,000 121 479 -64
2019-12-09 06:37:01 GMT 3.896118 99.479103 36,975 121 480 0
2019-12-09 06:36:58 GMT 3.898284 99.475517 36,975 121 480 0
2019-12-09 06:36:55 GMT 3.901729 99.469833 37,000 121 479 -64
2019-12-09 06:36:50 GMT 3.907150 99.460907 37,000 121 479 0
2019-12-09 06:36:47 GMT 3.912689 99.451782 37,000 121 480 0
2019-12-09 06:36:42 GMT 3.917953 99.443077 36,975 121 479 0
2019-12-09 06:36:39 GMT 3.921387 99.437393 36,975 121 479 0
2019-12-09 06:36:36 GMT 3.923264 99.434326 37,000 121 479 0
2019-12-09 06:36:31 GMT 3.930862 99.421799 37,000 121 480 0
2019-12-09 06:36:26 GMT 3.935440 99.414215 37,000 121 480 0
2019-12-09 06:36:20 GMT 3.943268 99.401321 36,975 121 480 64
2019-12-09 06:36:15 GMT 3.947769 99.393883 36,975 121 480 0
2019-12-09 06:36:09 GMT 3.956521 99.379433 36,975 121 480 0
2019-12-09 06:36:04 GMT 3.960432 99.372948 37,000 121 480 -64
2019-12-09 06:35:57 GMT 3.969928 99.357323 36,975 121 482 0
2019-12-09 06:35:53 GMT 3.972908 99.352348 36,975 121 482 -64
2019-12-09 06:35:48 GMT 3.979890 99.340889 37,000 121 483 -64
2019-12-09 06:35:45 GMT 3.983801 99.334351 37,000 121 483 -64
2019-12-09 06:35:34 GMT 3.995270 99.315430 36,975 121 483 0
2019-12-09 06:35:31 GMT 3.998749 99.309700 37,000 121 483 0
2019-12-09 06:35:25 GMT 4.006668 99.296715 37,000 121 483 -64
2019-12-09 06:35:21 GMT 4.010834 99.289825 36,975 121 482 -64
2019-12-09 06:35:15 GMT 4.016993 99.279709 36,975 121 482 0
2019-12-09 06:35:12 GMT 4.020355 99.274139 36,975 121 482 0
2019-12-09 06:35:04 GMT 4.031479 99.255798 37,000 121 482 0
2019-12-09 06:34:59 GMT 4.035873 99.248535 37,000 121 482 -64
2019-12-09 06:34:52 GMT 4.045483 99.232681 36,975 121 482 0
2019-12-09 06:34:48 GMT 4.048927 99.226952 36,975 121 482 0
2019-12-09 06:34:43 GMT 4.055740 99.215714 37,000 121 481 -64
2019-12-09 06:34:40 GMT 4.061403 99.206352 36,975 121 481 0
2019-12-09 06:34:34 GMT 4.065779 99.199104 36,975 121 480 -64
2019-12-09 06:34:30 GMT 4.069504 99.193001 37,000 121 480 -64
2019-12-09 06:34:26 GMT 4.074692 99.184433 37,000 121 480 -64
2019-12-09 06:34:22 GMT 4.079186 99.176994 37,000 121 480 -64
2019-12-09 06:34:19 GMT 4.082748 99.171120 37,000 121 481 -64
2019-12-09 06:34:16 GMT 4.085890 99.165962 37,000 121 481 0
2019-12-09 06:34:12 GMT 4.091995 99.155846 36,975 121 481 -64
2019-12-09 06:34:08 GMT 4.094223 99.152229 36,975 121 481 0
2019-12-09 06:34:05 GMT 4.098495 99.145187 37,000 121 481 -64
2019-12-09 06:33:58 GMT 4.107239 99.130707 37,000 121 481 0
2019-12-09 06:33:54 GMT 4.110947 99.124611 37,000 121 481 0
2019-12-09 06:33:50 GMT 4.116382 99.115669 36,975 121 480 0
2019-12-09 06:33:43 GMT 4.123169 99.104408 36,975 121 480 0
2019-12-09 06:33:37 GMT 4.131500 99.090675 37,000 121 480 -64
2019-12-09 06:33:32 GMT 4.136307 99.082664 37,000 121 480 0
2019-12-09 06:33:27 GMT 4.143847 99.070259 36,975 121 480 0
2019-12-09 06:33:20 GMT 4.150406 99.059387 36,975 121 480 0
2019-12-09 06:33:16 GMT 4.157441 99.047806 36,975 121 480 -64
2019-12-09 06:33:11 GMT 4.160886 99.042084 37,000 121 480 -64
2019-12-09 06:33:07 GMT 4.166794 99.032341 37,000 121 481 -64
2019-12-09 06:33:04 GMT 4.170227 99.026619 37,000 121 481 -64
2019-12-09 06:33:00 GMT 4.173362 99.021477 37,000 121 481 -64
2019-12-09 06:32:55 GMT 4.179832 99.010826 37,000 121 481 -64
2019-12-09 06:32:52 GMT 4.184441 99.003204 36,975 121 481 -64
2019-12-09 06:32:48 GMT 4.186615 98.999573 36,975 121 480 0
2019-12-09 06:32:44 GMT 4.193193 98.988708 36,975 121 480 0
2019-12-09 06:32:41 GMT 4.196684 98.983025 37,000 121 480 -64
2019-12-09 06:32:37 GMT 4.199198 98.978813 37,000 121 480 0
2019-12-09 06:32:33 GMT 4.204376 98.970245 37,000 121 480 0
2019-12-09 06:32:28 GMT 4.211395 98.958641 37,000 121 480 -64
2019-12-09 06:32:24 GMT 4.215771 98.951393 37,000 121 480 0
2019-12-09 06:32:16 GMT 4.223824 98.938087 36,975 121 480 -64
2019-12-09 06:32:13 GMT 4.228546 98.930305 37,000 121 480 0
2019-12-09 06:32:05 GMT 4.236374 98.917358 36,975 121 480 0
2019-12-09 06:32:02 GMT 4.240630 98.910339 36,975 121 478 64
2019-12-09 06:31:55 GMT 4.247799 98.898598 37,000 121 478 0
2019-12-09 06:31:51 GMT 4.252258 98.891197 36,975 121 478 0
2019-12-09 06:31:47 GMT 4.258785 98.880363 37,000 121 478 -64
2019-12-09 06:31:44 GMT 4.261113 98.876572 36,975 121 478 -64
2019-12-09 06:31:41 GMT 4.264557 98.870895 37,000 121 478 -64
2019-12-09 06:31:38 GMT 4.277023 98.850235 37,000 121 477 -64
2019-12-09 06:31:31 GMT 4.277023 98.850235 37,000 121 478 0
2019-12-09 06:31:27 GMT 4.281418 98.843063 36,975 121 477 0
2019-12-09 06:31:22 GMT 4.285413 98.836418 37,000 121 477 0
2019-12-09 06:31:19 GMT 4.289200 98.830170 37,000 121 477 0
2019-12-09 06:31:14 GMT 4.296911 98.817474 37,000 121 478 0
2019-12-09 06:31:10 GMT 4.300690 98.811218 37,000 121 478 64
2019-12-09 06:31:04 GMT 4.307013 98.800804 36,975 121 478 0
2019-12-09 06:31:01 GMT 4.310303 98.795303 36,975 121 478 0
2019-12-09 06:30:58 GMT 4.313623 98.789818 36,975 121 478 0
2019-12-09 06:30:52 GMT 4.320648 98.778259 37,000 121 478 -64
2019-12-09 06:30:48 GMT 4.335114 98.754379 37,000 121 478 -64
2019-12-09 06:30:39 GMT 4.340484 98.745445 37,000 121 478 0
2019-12-09 06:30:36 GMT 4.340484 98.745445 36,975 121 478 0
2019-12-09 06:30:29 GMT 4.347141 98.734459 37,000 121 478 0
2019-12-09 06:30:24 GMT 4.352448 98.725746 37,000 121 478 0
2019-12-09 06:30:18 GMT 4.359571 98.713959 36,975 121 478 0
2019-12-09 06:30:14 GMT 4.365875 98.703545 37,000 121 478 0
2019-12-09 06:30:07 GMT 4.372419 98.692741 37,000 121 479 0
2019-12-09 06:30:02 GMT 4.378843 98.682091 36,975 121 479 0
2019-12-09 06:29:56 GMT 4.384569 98.672569 36,975 121 479 0
2019-12-09 06:29:53 GMT 4.387939 98.667046 36,975 121 479 -64
2019-12-09 06:29:50 GMT 4.392623 98.659264 37,000 121 480 -64
2019-12-09 06:29:44 GMT 4.399978 98.647095 37,000 121 480 -64
2019-12-09 06:29:38 GMT 4.405052 98.638710 37,000 121 480 -64
2019-12-09 06:29:33 GMT 4.411988 98.627251 37,000 121 480 -64
2019-12-09 06:29:28 GMT 4.416830 98.619247 37,000 121 480 0
2019-12-09 06:29:23 GMT 4.422455 98.609932 37,000 121 480 -64
2019-12-09 06:29:19 GMT 4.428452 98.600014 37,000 121 480 0
2019-12-09 06:29:12 GMT 4.435264 98.588753 37,000 121 480 -64
2019-12-09 06:29:09 GMT 4.439873 98.581123 37,000 120 481 0
2019-12-09 06:29:05 GMT 4.443551 98.575020 37,000 120 481 0
2019-12-09 06:29:00 GMT 4.449875 98.564491 37,000 121 482 0
2019-12-09 06:28:57 GMT 4.453466 98.558586 37,000 121 482 64
2019-12-09 06:28:50 GMT 4.461101 98.545990 36,975 121 482 64
2019-12-09 06:28:47 GMT 4.465164 98.539307 36,975 121 483 64
2019-12-09 06:28:40 GMT 4.473450 98.525528 36,975 120 483 64
2019-12-09 06:28:34 GMT 4.480280 98.514168 36,975 120 483 0
2019-12-09 06:28:28 GMT 4.487091 98.502861 36,975 120 484 0
2019-12-09 06:28:25 GMT 4.491593 98.495323 36,975 121 485 -64
2019-12-09 06:28:17 GMT 4.499739 98.481873 36,975 121 486 -64
2019-12-09 06:28:14 GMT 4.502197 98.477814 37,000 120 487 -128
2019-12-09 06:28:07 GMT 4.510117 98.464638 37,000 120 487 -128
2019-12-09 06:28:04 GMT 4.514915 98.456726 37,000 121 488 -64
2019-12-09 06:27:57 GMT 4.522364 98.444321 36,975 121 488 -64
2019-12-09 06:27:54 GMT 4.527065 98.436600 37,000 121 486 -64
2019-12-09 06:27:46 GMT 4.536702 98.420784 37,000 121 487 0
2019-12-09 06:27:42 GMT 4.540193 98.414963 37,000 121 486 0
2019-12-09 06:27:34 GMT 4.550248 98.398384 37,000 121 486 0
2019-12-09 06:27:29 GMT 4.555939 98.388947 37,000 121 485 -64
2019-12-09 06:27:22 GMT 4.562668 98.377769 37,000 121 484 0
2019-12-09 06:27:19 GMT 4.567337 98.370094 37,000 121 484 0
2019-12-09 06:27:14 GMT 4.572922 98.360878 37,000 120 483 0
2019-12-09 06:27:11 GMT 4.576504 98.354912 37,000 120 483 -64
2019-12-09 06:27:02 GMT 4.587021 98.337456 37,000 121 483 64
2019-12-09 06:26:54 GMT 4.596615 98.321526 36,975 121 483 64
2019-12-09 06:26:50 GMT 4.600433 98.315254 36,975 121 483 64
2019-12-09 06:26:47 GMT 4.603683 98.309853 36,975 121 483 0
2019-12-09 06:26:39 GMT 4.613746 98.293213 36,975 121 483 0
2019-12-09 06:26:31 GMT 4.622963 98.277916 37,000 121 483 -64
2019-12-09 06:26:26 GMT 4.629713 98.266785 36,975 121 483 -64
2019-12-09 06:26:21 GMT 4.635361 98.257385 37,000 121 483 -64
2019-12-09 06:26:15 GMT 4.642422 98.245712 37,000 121 483 -64
2019-12-09 06:26:10 GMT 4.648008 98.236481 37,000 121 483 -64
2019-12-09 06:25:59 GMT 4.659668 98.217171 36,975 120 481 -64
2019-12-09 06:25:55 GMT 4.664246 98.209488 37,000 120 480 0
2019-12-09 06:25:46 GMT 4.674591 98.192352 37,000 121 477 0
2019-12-09 06:25:38 GMT 4.683667 98.177383 37,000 121 477 0
2019-12-09 06:25:28 GMT 4.695923 98.157166 37,000 121 475 0
2019-12-09 06:25:22 GMT 4.703247 98.145149 36,975 121 475 128
2019-12-09 06:25:16 GMT 4.708237 98.136864 37,000 120 474 64
2019-12-09 06:25:11 GMT 4.720350 98.116714 37,000 120 474 0
2019-12-09 06:25:07 GMT 4.720350 98.116714 36,975 120 474 0
2019-12-09 06:24:58 GMT 4.728378 98.103348 36,975 120 474 -64
2019-12-09 06:24:55 GMT 4.732681 98.096176 36,975 120 474 -64
2019-12-09 06:24:41 GMT 4.748337 98.070206 37,000 120 475 -64
2019-12-09 06:24:34 GMT 4.756661 98.056435 36,975 120 475 -64
2019-12-09 06:24:27 GMT 4.772396 98.030388 36,975 120 476 0
2019-12-09 06:24:20 GMT 4.772396 98.030388 36,975 121 476 0
2019-12-09 06:24:17 GMT 4.776958 98.022812 37,000 120 476 0
2019-12-09 06:24:13 GMT 4.781387 98.015457 37,000 120 476 0
2019-12-09 06:24:05 GMT 4.790365 98.000511 36,975 120 477 -64
2019-12-09 06:24:02 GMT 4.792646 97.996719 36,975 120 476 0
2019-12-09 06:23:53 GMT 4.804138 97.977562 36,975 120 478 -64
2019-12-09 06:23:41 GMT 4.817642 97.955170 37,000 121 478 -128
2019-12-09 06:23:35 GMT 4.823045 97.946243 37,025 121 478 -128
2019-12-09 06:23:31 GMT 4.828771 97.936722 37,000 121 479 -64
2019-12-09 06:23:19 GMT 4.843552 97.912254 37,000 121 477 -64
2019-12-09 06:23:05 GMT 4.857468 97.889206 36,975 120 474 0
2019-12-09 06:22:56 GMT 4.868433 97.870949 37,000 120 472 -64
2019-12-09 06:22:47 GMT 4.879623 97.852432 36,975 121 469 -64
2019-12-09 06:22:39 GMT 4.888264 97.838127 37,000 121 466 0
2019-12-09 06:22:36 GMT 4.890839 97.833855 37,000 121 466 64
2019-12-09 06:22:25 GMT 4.904092 97.811943 36,975 120 462 64
2019-12-09 06:22:15 GMT 4.914659 97.794373 37,000 120 459 -64
2019-12-09 06:22:07 GMT 4.923706 97.779297 37,000 121 456 -64
2019-12-09 06:22:04 GMT 4.926018 97.775482 37,000 121 455 -64
2019-12-09 06:21:54 GMT 4.938309 97.755180 37,025 121 451 -64
2019-12-09 06:21:42 GMT 4.949478 97.736610 37,025 120 447 64
2019-12-09 06:21:33 GMT 4.960653 97.717987 36,975 121 444 320
2019-12-09 06:21:22 GMT 4.971500 97.700043 36,950 120 443 128
2019-12-09 06:21:10 GMT 4.983261 97.680466 36,975 120 447 64
2019-12-09 06:20:58 GMT 4.997522 97.656715 36,975 120 454 -64
2019-12-09 06:20:50 GMT 5.005692 97.643089 36,975 120 460 -64
2019-12-09 06:20:39 GMT 5.018509 97.621765 36,975 120 467 -128
2019-12-09 06:15:52 GMT 5.347321 97.075195 36,975 120 476 0
2019-12-09 06:15:47 GMT 5.354141 97.063789 37,000 120 476 0
2019-12-09 06:15:35 GMT 5.366775 97.042809 37,000 120 476 0
2019-12-09 06:15:23 GMT 5.381113 97.018936 37,000 120 476 0
2019-12-09 06:15:14 GMT 5.389725 97.004494 37,000 120 476 0
2019-12-09 06:15:05 GMT 5.401316 96.985176 36,975 120 476 0
2019-12-09 06:14:21 GMT 5.451314 96.901833 36,975 121 475 0
2019-12-09 06:14:12 GMT 5.460617 96.885590 37,000 117 475 0
2019-12-09 06:14:02 GMT 5.471238 96.863564 36,975 113 475 0
2019-12-09 06:13:48 GMT 5.480735 96.838371 36,975 108 475 0
2019-12-09 06:13:40 GMT 5.486343 96.819160 36,975 104 475 -64
2019-12-09 06:13:28 GMT 5.491581 96.795662 37,000 99 476 -64
2019-12-09 06:13:19 GMT 5.494886 96.773827 37,000 97 477 -64
2019-12-09 06:13:09 GMT 5.497833 96.752121 37,000 97 477 -64
2019-12-09 06:12:56 GMT 5.501404 96.725624 37,000 97 476 -64
2019-12-09 06:12:47 GMT 5.504288 96.704407 37,000 97 476 0
2019-12-09 06:12:37 GMT 5.507223 96.682816 36,975 97 475 0
2019-12-09 06:12:27 GMT 5.510559 96.658554 37,000 97 475 -64
2019-12-09 06:12:16 GMT 5.513461 96.636971 36,975 97 476 -64
2019-12-09 06:12:06 GMT 5.516693 96.612701 37,000 97 476 0
2019-12-09 06:11:53 GMT 5.519989 96.587791 37,000 97 476 0
2019-12-09 06:11:45 GMT 5.522552 96.568100 36,975 97 475 0
2019-12-09 06:11:33 GMT 5.525620 96.544037 36,975 97 475 -64
2019-12-09 06:11:24 GMT 5.528275 96.522156 37,000 96 475 -64
2019-12-09 06:11:12 GMT 5.530778 96.498222 36,975 95 476 -64
2019-12-09 06:11:03 GMT 5.533127 96.475182 37,000 97 475 -64
2019-12-09 06:10:51 GMT 5.536784 96.451912 37,000 99 474 -64
2019-12-09 06:10:41 GMT 5.540863 96.428261 37,000 100 474 64
2019-12-09 06:10:12 GMT 5.555544 96.364876 36,975 105 472 -64
2019-12-09 06:10:09 GMT 5.557205 96.358757 36,975 105 472 -64
2019-12-09 06:09:58 GMT 5.562620 96.337784 37,000 103 471 -64
2019-12-09 06:09:49 GMT 5.568375 96.317368 37,000 108 471 -64
2019-12-09 06:09:11 GMT 5.604904 96.242516 37,000 118 471 0
2019-12-09 06:09:05 GMT 5.609894 96.233299 37,000 118 471 -64
2019-12-09 06:08:56 GMT 5.620345 96.213860 37,000 118 471 -64
2019-12-09 06:07:13 GMT 5.727676 96.014786 37,000 118 474 -64
2019-12-09 06:06:36 GMT 5.765215 95.944885 37,000 118 474 0
2019-12-09 06:06:14 GMT 5.788055 95.902451 37,000 118 476 0
2019-12-09 06:05:55 GMT 5.808323 95.864899 37,000 118 476 -64
2019-12-09 06:05:45 GMT 5.819962 95.843239 37,000 118 477 -64
2019-12-09 06:05:00 GMT 5.867157 95.755440 37,000 118 476 -64
2019-12-09 06:04:52 GMT 5.874023 95.742592 37,000 118 476 -64
2019-12-09 06:04:41 GMT 5.885330 95.721550 37,000 118 476 -64
2019-12-09 06:04:29 GMT 5.897873 95.698181 37,000 118 476 0
2019-12-09 06:04:17 GMT 5.910233 95.675232 36,975 118 476 0
2019-12-09 06:04:10 GMT 5.918152 95.660477 37,000 118 475 0
2019-12-09 06:03:30 GMT 5.959711 95.583183 36,975 118 476 64
2019-12-09 06:03:26 GMT 5.964844 95.573654 36,975 118 476 0
2019-12-09 06:03:16 GMT 5.974700 95.555527 36,975 118 477 -64
2019-12-09 06:03:06 GMT 5.985214 95.534317 37,000 114 477 -64
2019-12-09 06:02:56 GMT 5.993134 95.515976 36,975 111 478 64
2019-12-09 06:02:41 GMT 6.004898 95.482925 36,975 107 478 -64
2019-12-09 06:02:36 GMT 6.007874 95.472679 37,000 104 479 -64
2019-12-09 06:01:59 GMT 6.026367 95.394104 37,000 103 475 64
2019-12-09 06:01:37 GMT 6.037406 95.346603 37,000 103 475 64
2019-12-09 06:00:17 GMT 6.077022 95.175507 37,000 103 477 64
We lost coverage of the aircraft here for a total of 113 minutes
2019-12-09 04:07:39 GMT 12.431076 81.422806 35,000 114 505 0
2019-12-09 04:07:36 GMT 12.434921 81.414093 34,975 114 505 0
2019-12-09 04:07:24 GMT 12.446091 81.388847 35,000 114 505 -64
2019-12-09 04:07:14 GMT 12.455656 81.367249 35,000 114 506 -64
2019-12-09 04:07:03 GMT 12.466370 81.343056 34,975 114 506 0
2019-12-09 04:06:52 GMT 12.476944 81.319099 35,000 114 506 -64
2019-12-09 04:06:40 GMT 12.488615 81.292709 35,000 114 506 0
2019-12-09 04:06:29 GMT 12.498997 81.269150 34,975 114 506 0
2019-12-09 04:06:19 GMT 12.508530 81.247589 35,000 114 505 64
2019-12-09 04:06:07 GMT 12.520065 81.221451 34,975 114 505 0
2019-12-09 04:05:42 GMT 12.544385 81.166267 35,000 114 506 -64
2019-12-09 04:05:34 GMT 12.551321 81.150558 35,000 114 506 0
2019-12-09 04:05:23 GMT 12.562363 81.125465 34,975 114 505 0
2019-12-09 04:05:13 GMT 12.572084 81.103485 34,975 114 505 0
2019-12-09 04:05:01 GMT 12.583582 81.077316 35,000 114 505 -64
2019-12-09 04:04:50 GMT 12.595127 81.051201 35,000 114 505 -64
2019-12-09 04:04:40 GMT 12.604111 81.030724 34,975 114 504 0
2019-12-09 04:04:27 GMT 12.616215 81.003304 35,000 114 504 64
2019-12-09 04:04:18 GMT 12.625671 80.981743 34,975 114 504 64
2019-12-09 04:04:07 GMT 12.636017 80.958252 35,000 114 504 0
2019-12-09 04:03:56 GMT 12.646545 80.934288 34,975 114 505 -64
2019-12-09 04:03:45 GMT 12.656937 80.910706 35,000 114 506 -64
2019-12-09 04:03:32 GMT 12.669205 80.882767 34,975 114 506 -64
2019-12-09 04:03:22 GMT 12.678818 80.860939 35,000 114 504 -64
2019-12-09 04:03:10 GMT 12.689256 80.837212 34,975 114 504 -64
2019-12-09 04:02:59 GMT 12.700102 80.812439 35,000 114 502 -64
2019-12-09 04:02:54 GMT 12.706387 80.798134 35,000 114 501 -64
2019-12-09 04:02:46 GMT 12.714111 80.780579 35,000 114 500 0
2019-12-09 04:02:38 GMT 12.720520 80.765900 35,000 114 499 64
2019-12-09 04:02:27 GMT 12.730873 80.742378 35,000 114 499 0
2019-12-09 04:02:15 GMT 12.742232 80.716507 34,975 113 499 0
2019-12-09 04:02:05 GMT 12.752241 80.693619 35,000 114 500 0
2019-12-09 04:02:00 GMT 12.756866 80.683022 35,000 114 500 0
2019-12-09 04:01:54 GMT 12.762668 80.669861 34,975 114 500 0
2019-12-09 04:01:50 GMT 12.767231 80.659500 34,975 114 500 0
2019-12-09 04:01:42 GMT 12.773469 80.645187 34,975 114 501 -64
2019-12-09 04:01:37 GMT 12.778589 80.633530 34,975 114 501 -64
2019-12-09 04:01:31 GMT 12.783943 80.621384 35,000 114 501 -64
2019-12-09 04:01:28 GMT 12.787628 80.612938 35,000 114 501 -64
2019-12-09 04:01:21 GMT 12.794184 80.597969 35,000 114 501 -64
2019-12-09 04:01:10 GMT 12.804749 80.573921 35,000 114 501 0
2019-12-09 04:00:58 GMT 12.815369 80.549629 35,000 114 501 0
2019-12-09 04:00:53 GMT 12.819648 80.539856 34,975 114 501 0
2019-12-09 04:00:47 GMT 12.825700 80.526024 35,000 114 501 0
2019-12-09 04:00:41 GMT 12.832031 80.511505 35,000 114 501 -64
2019-12-09 04:00:32 GMT 12.839340 80.494850 35,000 114 501 0
2019-12-09 04:00:24 GMT 12.846634 80.478165 34,975 114 500 -64
2019-12-09 04:00:14 GMT 12.857620 80.453072 34,975 113 500 -64
2019-12-09 04:00:11 GMT 12.860413 80.446587 35,000 113 500 -64
2019-12-09 04:00:00 GMT 12.871399 80.421532 35,000 114 500 0
2019-12-09 03:59:50 GMT 12.880958 80.399681 34,975 113 500 0
2019-12-09 03:59:41 GMT 12.888313 80.382820 34,975 113 500 0
2019-12-09 03:59:38 GMT 12.891220 80.376122 34,975 113 500 0
2019-12-09 03:59:31 GMT 12.901534 80.352554 35,000 113 500 0
2019-12-09 03:59:20 GMT 12.908249 80.337196 34,975 114 500 -64
2019-12-09 03:59:16 GMT 12.912003 80.328575 35,000 114 500 0
2019-12-09 03:59:08 GMT 12.918457 80.313850 34,975 113 500 -64
2019-12-09 03:59:05 GMT 12.922901 80.303650 34,975 113 500 0
2019-12-09 03:58:55 GMT 12.933151 80.280083 34,975 113 500 0
2019-12-09 03:58:48 GMT 12.938828 80.267105 35,000 113 500 -64
2019-12-09 03:58:43 GMT 12.943176 80.257164 34,975 113 500 0
2019-12-09 03:58:36 GMT 12.949669 80.242210 35,000 113 500 -64
2019-12-09 03:58:33 GMT 12.953522 80.233345 34,975 113 499 -64
2019-12-09 03:58:26 GMT 12.959518 80.219513 35,000 113 499 -64
2019-12-09 03:58:21 GMT 12.963914 80.209351 35,000 114 499 0
2019-12-09 03:58:18 GMT 12.966293 80.203987 35,000 114 499 0
2019-12-09 03:58:14 GMT 12.969727 80.196220 34,975 114 499 0
2019-12-09 03:58:10 GMT 12.974900 80.184875 34,975 115 498 0
2019-12-09 03:58:06 GMT 12.976776 80.180824 35,000 115 498 0
2019-12-09 03:58:00 GMT 12.985467 80.162323 35,000 115 497 0
2019-12-09 03:57:53 GMT 12.991147 80.150513 35,000 116 497 0
2019-12-09 03:57:48 GMT 12.996872 80.138916 35,000 117 496 0
2019-12-09 03:57:42 GMT 13.002645 80.127434 35,000 117 497 0
2019-12-09 03:57:38 GMT 13.014376 80.105026 35,000 118 496 0
2019-12-09 03:57:32 GMT 13.014376 80.105026 34,975 118 496 0
2019-12-09 03:57:26 GMT 13.019870 80.094666 35,000 118 496 64
2019-12-09 03:57:21 GMT 13.026480 80.082283 34,975 118 496 0
2019-12-09 03:57:15 GMT 13.033323 80.069519 35,000 118 496 -64
2019-12-09 03:57:09 GMT 13.037699 80.061226 34,975 118 497 -64
2019-12-09 03:57:05 GMT 13.044617 80.048187 35,000 118 497 -64
2019-12-09 03:56:58 GMT 13.049989 80.038048 35,000 118 497 -64
2019-12-09 03:56:53 GMT 13.057571 80.023796 34,975 118 497 0
2019-12-09 03:56:48 GMT 13.062012 80.015511 34,975 118 497 0
2019-12-09 03:56:43 GMT 13.068936 80.002487 35,000 118 497 0
2019-12-09 03:56:38 GMT 13.073125 79.994637 35,000 118 497 -64
2019-12-09 03:56:34 GMT 13.076663 79.987984 35,000 118 497 -64
2019-12-09 03:56:26 GMT 13.086113 79.970154 35,000 118 497 -64
2019-12-09 03:56:18 GMT 13.096076 79.951553 35,000 118 497 0
2019-12-09 03:56:14 GMT 13.099503 79.945145 35,000 118 497 0
2019-12-09 03:56:10 GMT 13.105042 79.934769 35,000 118 497 0
2019-12-09 03:56:04 GMT 13.109343 79.926697 35,000 118 497 0
2019-12-09 03:56:01 GMT 13.112648 79.920479 34,975 118 497 64
2019-12-09 03:55:52 GMT 13.122750 79.901443 34,975 118 497 -64
2019-12-09 03:55:42 GMT 13.133783 79.880722 34,975 118 497 0
2019-12-09 03:55:32 GMT 13.145096 79.859383 35,000 118 497 -64
2019-12-09 03:55:22 GMT 13.157455 79.836182 35,000 118 497 0
2019-12-09 03:55:10 GMT 13.168790 79.814857 34,975 118 497 0
2019-12-09 03:55:00 GMT 13.180984 79.791855 34,975 118 497 0
2019-12-09 03:54:50 GMT 13.192429 79.770309 34,975 118 497 0
2019-12-09 03:54:39 GMT 13.204449 79.747734 35,000 118 498 -64
2019-12-09 03:54:30 GMT 13.216187 79.725555 34,975 118 498 -64
2019-12-09 03:54:20 GMT 13.225433 79.708130 35,000 118 497 0
2019-12-09 03:54:07 GMT 13.239990 79.680809 35,000 118 497 0
2019-12-09 03:53:59 GMT 13.247681 79.666267 34,975 118 497 -64
2019-12-09 03:53:56 GMT 13.252945 79.656326 35,000 118 497 0
2019-12-09 03:53:49 GMT 13.259537 79.643921 35,000 118 497 -64
2019-12-09 03:53:44 GMT 13.264618 79.634399 35,000 118 497 -64
2019-12-09 03:53:38 GMT 13.270798 79.622795 35,000 118 497 0
2019-12-09 03:53:33 GMT 13.276372 79.612236 35,000 118 497 0
2019-12-09 03:53:27 GMT 13.282654 79.600449 34,975 118 496 0
2019-12-09 03:53:22 GMT 13.288559 79.589272 34,975 118 496 -64
2019-12-09 03:53:17 GMT 13.293504 79.579948 34,975 118 496 0
2019-12-09 03:53:11 GMT 13.300486 79.566696 34,975 118 496 -64
2019-12-09 03:53:07 GMT 13.304676 79.558846 35,000 118 496 -64
2019-12-09 03:53:01 GMT 13.312311 79.544388 35,000 118 495 -64
2019-12-09 03:52:57 GMT 13.316391 79.536705 35,000 118 495 -64
2019-12-09 03:52:50 GMT 13.324265 79.521835 35,000 118 495 0
2019-12-09 03:52:46 GMT 13.327673 79.515427 34,975 118 495 0
2019-12-09 03:52:38 GMT 13.335892 79.499962 35,000 118 495 0
2019-12-09 03:52:35 GMT 13.339032 79.493935 34,975 118 495 0
2019-12-09 03:52:26 GMT 13.350311 79.472687 35,000 118 494 0
2019-12-09 03:52:18 GMT 13.359375 79.455536 34,975 118 494 -64
2019-12-09 03:52:07 GMT 13.371153 79.433273 35,000 118 494 -64
2019-12-09 03:51:55 GMT 13.383911 79.409134 35,000 118 494 -64
2019-12-09 03:51:44 GMT 13.395174 79.387878 35,000 118 494 0
2019-12-09 03:51:33 GMT 13.406905 79.365669 35,000 118 493 0
2019-12-09 03:51:23 GMT 13.418335 79.344017 35,000 118 493 0
2019-12-09 03:51:10 GMT 13.431903 79.318298 35,000 118 493 0
2019-12-09 03:51:03 GMT 13.440491 79.302017 35,000 118 493 0
2019-12-09 03:51:00 GMT 13.443100 79.297089 35,000 118 493 -64
2019-12-09 03:50:52 GMT 13.451455 79.281197 35,000 118 493 0
2019-12-09 03:50:48 GMT 13.455598 79.273392 35,000 118 493 -64
2019-12-09 03:50:40 GMT 13.464955 79.255661 35,000 118 494 -64
2019-12-09 03:50:36 GMT 13.469238 79.247604 34,975 118 494 0
2019-12-09 03:50:30 GMT 13.477295 79.232353 34,975 118 494 0
2019-12-09 03:50:26 GMT 13.479992 79.227234 34,975 118 494 0
2019-12-09 03:50:19 GMT 13.488697 79.210701 35,000 118 493 0
2019-12-09 03:50:16 GMT 13.490885 79.206604 35,000 118 493 -64
2019-12-09 03:50:08 GMT 13.502616 79.184341 35,000 118 493 0
2019-12-09 03:50:00 GMT 13.508835 79.172546 35,000 118 493 -64
2019-12-09 03:49:55 GMT 13.513696 79.163284 34,975 118 493 0
2019-12-09 03:49:49 GMT 13.520370 79.150665 34,975 118 494 -64
2019-12-09 03:49:44 GMT 13.525360 79.141197 34,975 118 494 -64
2019-12-09 03:49:39 GMT 13.531386 79.129845 35,000 118 494 -64
2019-12-09 03:49:33 GMT 13.537125 79.118896 35,000 118 494 -64
2019-12-09 03:49:29 GMT 13.543349 79.107101 35,000 118 494 0
2019-12-09 03:49:23 GMT 13.548248 79.097824 35,000 118 494 0
2019-12-09 03:49:17 GMT 13.554794 79.085411 35,000 118 493 0
2019-12-09 03:49:12 GMT 13.560013 79.075516 35,000 118 493 0
2019-12-09 03:49:08 GMT 13.565788 79.064606 35,000 118 493 0
2019-12-09 03:49:02 GMT 13.571320 79.054070 35,000 118 494 0
2019-12-09 03:48:57 GMT 13.576767 79.043739 35,000 118 493 0
2019-12-09 03:48:50 GMT 13.584824 79.028496 35,000 118 493 -64
2019-12-09 03:48:46 GMT 13.589017 79.020470 35,000 118 493 0
2019-12-09 03:48:41 GMT 13.594574 79.009933 35,000 118 493 0
2019-12-09 03:48:37 GMT 13.599445 79.000664 34,975 118 493 0
2019-12-09 03:48:31 GMT 13.606381 78.987511 34,975 118 492 64
2019-12-09 03:48:26 GMT 13.610711 78.979263 34,975 118 492 64
2019-12-09 03:48:20 GMT 13.618112 78.965248 34,975 118 493 0
2019-12-09 03:48:15 GMT 13.622131 78.957603 34,975 118 493 0
2019-12-09 03:48:09 GMT 13.630030 78.942596 34,975 118 493 -64
2019-12-09 03:48:06 GMT 13.633521 78.935997 35,000 118 493 -64
2019-12-09 03:47:57 GMT 13.641761 78.920334 35,000 118 493 -64
2019-12-09 03:47:53 GMT 13.645718 78.912918 35,000 118 493 -64
2019-12-09 03:47:48 GMT 13.651703 78.901581 35,000 118 493 -64
2019-12-09 03:47:45 GMT 13.655494 78.894363 35,000 118 493 0
2019-12-09 03:47:37 GMT 13.664851 78.876633 35,000 118 493 0
2019-12-09 03:47:34 GMT 13.666806 78.872925 34,975 118 493 0
2019-12-09 03:47:26 GMT 13.676422 78.854515 34,975 118 493 0
2019-12-09 03:47:23 GMT 13.679794 78.848152 34,975 118 493 0
2019-12-09 03:47:15 GMT 13.688553 78.831406 35,000 118 493 -64
2019-12-09 03:47:12 GMT 13.690704 78.827286 35,000 118 493 -64
2019-12-09 03:47:04 GMT 13.700455 78.808723 35,000 118 493 -64
2019-12-09 03:47:01 GMT 13.702194 78.805405 34,975 118 493 -64
2019-12-09 03:46:55 GMT 13.709401 78.791580 35,000 118 493 -64
2019-12-09 03:46:51 GMT 13.713409 78.783951 35,000 118 493 -64
2019-12-09 03:46:44 GMT 13.720853 78.769707 35,000 118 492 0
2019-12-09 03:46:41 GMT 13.724213 78.763306 35,000 118 492 0
2019-12-09 03:46:33 GMT 13.732819 78.746826 35,000 118 492 0
2019-12-09 03:46:30 GMT 13.735611 78.741478 35,000 118 491 0
2019-12-09 03:46:21 GMT 13.746503 78.720703 35,000 118 491 0
2019-12-09 03:46:10 GMT 13.758636 78.697479 34,975 118 491 64
2019-12-09 03:46:02 GMT 13.770152 78.675507 34,975 118 491 -64
2019-12-09 03:45:59 GMT 13.770152 78.675507 35,000 118 491 -64
2019-12-09 03:45:51 GMT 13.777588 78.661301 35,000 118 491 -64
2019-12-09 03:45:48 GMT 13.781324 78.654114 35,000 118 491 -64
2019-12-09 03:45:40 GMT 13.789398 78.638718 35,000 118 491 -64
2019-12-09 03:45:37 GMT 13.793930 78.630051 34,975 118 491 0
2019-12-09 03:45:30 GMT 13.800318 78.617920 34,975 118 491 0
2019-12-09 03:45:27 GMT 13.805299 78.608482 34,975 118 491 0
2019-12-09 03:45:18 GMT 13.813568 78.592590 35,000 118 491 -64
2019-12-09 03:45:14 GMT 13.818659 78.582939 35,000 118 491 -64
2019-12-09 03:45:07 GMT 13.824897 78.571037 34,975 118 491 -64
2019-12-09 03:45:04 GMT 13.828262 78.564651 35,000 118 491 -64
2019-12-09 03:44:58 GMT 13.835999 78.549828 35,000 118 491 0
2019-12-09 03:44:54 GMT 13.839794 78.542610 35,000 118 491 0
2019-12-09 03:44:47 GMT 13.847522 78.527817 35,000 118 490 0
2019-12-09 03:44:44 GMT 13.851517 78.520233 34,975 118 490 0
2019-12-09 03:44:37 GMT 13.858089 78.507721 35,000 118 490 -64
2019-12-09 03:44:33 GMT 13.863908 78.496643 35,000 118 490 0
2019-12-09 03:44:26 GMT 13.870146 78.484741 35,000 118 489 0
2019-12-09 03:44:22 GMT 13.875313 78.474861 35,000 118 489 0
2019-12-09 03:44:16 GMT 13.880356 78.465210 35,000 118 489 64
2019-12-09 03:44:10 GMT 13.886486 78.453514 35,000 118 490 0
2019-12-09 03:44:06 GMT 13.891525 78.443848 34,975 118 490 64
2019-12-09 03:43:58 GMT 13.899857 78.427795 34,975 118 490 0
2019-12-09 03:43:55 GMT 13.903198 78.421425 34,975 118 490 -64
2019-12-09 03:43:47 GMT 13.911667 78.405159 35,000 118 492 0
2019-12-09 03:43:44 GMT 13.914505 78.399811 35,000 118 492 -64
2019-12-09 03:43:38 GMT 13.921726 78.386009 35,000 118 492 0
2019-12-09 03:43:34 GMT 13.925720 78.378357 34,975 118 492 0
2019-12-09 03:43:23 GMT 13.937461 78.355843 34,975 118 493 64
2019-12-09 03:43:15 GMT 13.945999 78.339478 34,975 118 493 -64
2019-12-09 03:43:12 GMT 13.948837 78.334129 34,975 118 493 -64
2019-12-09 03:43:02 GMT 13.960052 78.312584 35,000 118 493 -64
2019-12-09 03:42:55 GMT 13.968475 78.296432 35,000 118 494 0
2019-12-09 03:42:51 GMT 13.971497 78.290611 34,975 118 493 0
2019-12-09 03:42:40 GMT 13.983873 78.266792 35,000 118 494 -64
2019-12-09 03:42:30 GMT 13.994720 78.246071 35,000 118 493 -64
2019-12-09 03:42:19 GMT 14.006172 78.224152 35,000 118 493 0
2019-12-09 03:42:09 GMT 14.017391 78.202614 35,000 118 493 0
2019-12-09 03:42:01 GMT 14.025538 78.186905 34,975 118 493 64
2019-12-09 03:41:58 GMT 14.029312 78.179703 34,975 118 493 64
2019-12-09 03:41:50 GMT 14.038788 78.161522 35,000 118 493 0
2019-12-09 03:41:46 GMT 14.042389 78.154716 34,975 118 493 0
2019-12-09 03:41:42 GMT 14.046799 78.146225 35,000 118 493 -64
2019-12-09 03:41:36 GMT 14.052910 78.134430 35,000 118 493 0
2019-12-09 03:41:32 GMT 14.058197 78.124252 35,000 118 494 -64
2019-12-09 03:41:29 GMT 14.061336 78.118240 35,000 118 494 -64
2019-12-09 03:41:26 GMT 14.063416 78.114311 34,975 118 494 -64
2019-12-09 03:41:20 GMT 14.069576 78.102478 35,000 118 494 -64
2019-12-09 03:41:16 GMT 14.074860 78.092339 34,975 118 495 -64
2019-12-09 03:41:11 GMT 14.080673 78.081116 35,000 118 494 -64
2019-12-09 03:41:08 GMT 14.083511 78.075714 35,000 118 494 0
2019-12-09 03:41:02 GMT 14.089554 78.064110 34,975 118 495 0
2019-12-09 03:40:58 GMT 14.094854 78.053909 35,000 118 494 64
2019-12-09 03:40:53 GMT 14.099602 78.044800 34,975 118 495 0
2019-12-09 03:40:50 GMT 14.103607 78.037117 34,975 118 495 0
2019-12-09 03:40:44 GMT 14.109192 78.026321 34,975 118 495 64
2019-12-09 03:40:39 GMT 14.114410 78.016335 34,975 118 495 -64
2019-12-09 03:40:36 GMT 14.117203 78.010933 34,975 118 495 -64
2019-12-09 03:40:27 GMT 14.128647 77.988914 35,000 118 496 -64
2019-12-09 03:40:23 GMT 14.131816 77.982834 35,000 118 496 -64
2019-12-09 03:40:19 GMT 14.136984 77.972862 35,000 118 496 0
2019-12-09 03:40:16 GMT 14.140242 77.966599 35,000 118 496 0
2019-12-09 03:40:08 GMT 14.148482 77.950745 35,000 118 496 0
2019-12-09 03:40:05 GMT 14.151169 77.945534 34,975 118 496 0
2019-12-09 03:40:01 GMT 14.155186 77.937828 35,000 118 496 0
2019-12-09 03:39:58 GMT 14.159637 77.929291 35,000 118 496 0
2019-12-09 03:39:55 GMT 14.162201 77.924271 35,000 118 496 -64
2019-12-09 03:39:51 GMT 14.166684 77.915710 35,000 118 496 0
2019-12-09 03:39:45 GMT 14.173691 77.902161 35,000 118 496 -64
2019-12-09 03:39:40 GMT 14.177950 77.894028 35,000 118 496 0
2019-12-09 03:39:34 GMT 14.184769 77.880898 35,000 118 496 0
2019-12-09 03:39:29 GMT 14.189634 77.871529 34,975 118 496 0
2019-12-09 03:39:24 GMT 14.195919 77.859436 35,000 117 496 -64
2019-12-09 03:39:19 GMT 14.201202 77.849213 35,000 118 496 64
2019-12-09 03:39:16 GMT 14.204865 77.842110 34,975 118 496 0
2019-12-09 03:39:13 GMT 14.208022 77.836060 34,975 118 496 0
2019-12-09 03:39:08 GMT 14.212538 77.827293 34,975 118 496 0
2019-12-09 03:39:03 GMT 14.218403 77.816017 35,000 117 497 0
2019-12-09 03:38:56 GMT 14.226597 77.800163 34,975 117 497 -64
2019-12-09 03:38:53 GMT 14.229767 77.794144 35,000 117 497 -64
2019-12-09 03:38:46 GMT 14.236679 77.780739 34,975 118 497 -64
2019-12-09 03:38:42 GMT 14.241028 77.772362 35,000 118 498 -64
2019-12-09 03:38:36 GMT 14.247638 77.759644 35,000 118 498 -64
2019-12-09 03:38:31 GMT 14.252619 77.750000 35,000 118 498 0
2019-12-09 03:38:25 GMT 14.258950 77.737862 35,000 118 498 0
2019-12-09 03:38:22 GMT 14.263596 77.728844 34,975 118 498 0
2019-12-09 03:38:11 GMT 14.275197 77.706444 34,975 118 498 0
2019-12-09 03:38:04 GMT 14.281714 77.693871 34,975 118 498 0
2019-12-09 03:38:01 GMT 14.286575 77.684418 34,975 118 498 -64
2019-12-09 03:37:54 GMT 14.292980 77.672089 34,975 118 498 -64
2019-12-09 03:37:49 GMT 14.298523 77.661362 35,000 117 499 -64
2019-12-09 03:37:43 GMT 14.304711 77.649437 35,000 117 499 -64
2019-12-09 03:37:39 GMT 14.309041 77.641052 34,975 117 499 -64
2019-12-09 03:37:29 GMT 14.321424 77.617104 35,000 117 499 -64
2019-12-09 03:37:18 GMT 14.332169 77.596344 35,000 117 499 0
2019-12-09 03:37:09 GMT 14.343018 77.575363 35,000 117 499 0
2019-12-09 03:36:58 GMT 14.354429 77.553307 35,000 117 499 0
2019-12-09 03:36:48 GMT 14.365768 77.531326 35,000 117 499 0
2019-12-09 03:36:36 GMT 14.377193 77.509270 34,975 117 498 0
2019-12-09 03:36:26 GMT 14.387993 77.488304 34,975 117 498 -64
2019-12-09 03:36:15 GMT 14.400238 77.464600 35,000 117 498 -64
2019-12-09 03:36:05 GMT 14.410858 77.444000 35,000 117 498 0
2019-12-09 03:35:56 GMT 14.421707 77.423019 35,000 117 498 0
2019-12-09 03:35:45 GMT 14.432968 77.401192 34,975 117 498 0
2019-12-09 03:35:34 GMT 14.444458 77.378937 34,975 117 499 0
2019-12-09 03:35:25 GMT 14.455765 77.357101 35,000 117 499 -64
2019-12-09 03:35:12 GMT 14.468203 77.332909 35,000 117 500 -64
2019-12-09 03:35:02 GMT 14.479843 77.310364 35,000 117 500 0
2019-12-09 03:34:52 GMT 14.490781 77.289108 34,975 117 500 0
2019-12-09 03:34:41 GMT 14.502823 77.265755 35,000 117 500 0
2019-12-09 03:34:37 GMT 14.508041 77.255623 34,975 117 500 0
2019-12-09 03:34:33 GMT 14.512161 77.247620 34,975 117 500 0
2019-12-09 03:34:22 GMT 14.523367 77.225983 35,000 117 500 -64
2019-12-09 03:34:12 GMT 14.534088 77.205139 35,000 117 499 -64
2019-12-09 03:34:02 GMT 14.545433 77.183052 35,000 117 499 0
2019-12-09 03:33:51 GMT 14.558762 77.157173 35,000 117 498 0
2019-12-09 03:33:38 GMT 14.570106 77.135056 35,000 117 498 0
2019-12-09 03:33:28 GMT 14.581138 77.113663 35,000 117 498 0
2019-12-09 03:33:17 GMT 14.593735 77.089027 34,975 117 499 64
2019-12-09 03:33:07 GMT 14.603531 77.069565 34,975 117 498 0
2019-12-09 03:32:58 GMT 14.614563 77.047592 34,975 117 499 -64
2019-12-09 03:32:53 GMT 14.619049 77.038689 34,975 117 499 -64
2019-12-09 03:32:47 GMT 14.625317 77.026207 34,975 117 499 -64
2019-12-09 03:32:43 GMT 14.629898 77.017097 35,000 117 499 -64
2019-12-09 03:32:37 GMT 14.636210 77.004616 35,000 117 499 -64
2019-12-09 03:32:32 GMT 14.641517 76.994019 35,000 117 499 -64
2019-12-09 03:32:26 GMT 14.649078 76.978973 34,975 117 499 -64
2019-12-09 03:32:20 GMT 14.653667 76.969879 35,000 117 500 0
2019-12-09 03:32:16 GMT 14.659393 76.958412 35,000 117 499 -64
2019-12-09 03:32:07 GMT 14.667912 76.941498 34,975 117 499 0
2019-12-09 03:32:04 GMT 14.671077 76.935135 34,975 117 499 64
2019-12-09 03:31:55 GMT 14.681854 76.913765 34,975 117 499 0
2019-12-09 03:31:46 GMT 14.690140 76.897240 35,000 117 499 -64
2019-12-09 03:31:43 GMT 14.692886 76.891747 35,000 117 499 -64
2019-12-09 03:31:34 GMT 14.703323 76.871002 35,000 117 499 -64
2019-12-09 03:31:26 GMT 14.712479 76.852776 35,000 117 499 0
2019-12-09 03:31:23 GMT 14.714511 76.848740 35,000 117 499 0
2019-12-09 03:31:12 GMT 14.726614 76.824600 35,000 117 499 -64
2019-12-09 03:31:05 GMT 14.735001 76.807884 35,000 117 499 0
2019-12-09 03:31:02 GMT 14.737228 76.803398 35,000 117 499 0
2019-12-09 03:30:52 GMT 14.747772 76.782455 34,975 117 500 0
2019-12-09 03:30:42 GMT 14.758503 76.761040 35,000 117 500 -64
2019-12-09 03:30:32 GMT 14.769768 76.738541 35,000 117 500 -64
2019-12-09 03:30:20 GMT 14.781267 76.715599 35,000 117 500 0
2019-12-09 03:30:11 GMT 14.791580 76.695038 34,975 117 500 0
2019-12-09 03:30:01 GMT 14.802727 76.672768 35,000 117 500 -64
2019-12-09 03:29:50 GMT 14.813461 76.651283 35,000 117 500 -64
2019-12-09 03:29:40 GMT 14.824420 76.629448 35,000 117 500 0
2019-12-09 03:29:30 GMT 14.835453 76.607368 35,000 117 500 0
2019-12-09 03:29:19 GMT 14.846486 76.585251 35,000 117 500 -64
2019-12-09 03:29:08 GMT 14.857938 76.562347 35,000 117 500 0
2019-12-09 03:28:58 GMT 14.868622 76.540932 34,975 117 500 0
2019-12-09 03:28:48 GMT 14.879242 76.519730 35,000 117 500 0
2019-12-09 03:28:37 GMT 14.891223 76.495743 35,000 117 500 -64
2019-12-09 03:28:27 GMT 14.901306 76.475540 34,975 117 500 0
2019-12-09 03:28:16 GMT 14.912979 76.452171 34,975 117 501 0
2019-12-09 03:28:07 GMT 14.923670 76.430710 35,000 117 501 -64
2019-12-09 03:27:56 GMT 14.934517 76.408928 35,000 117 502 -64
2019-12-09 03:27:45 GMT 14.946121 76.385628 35,000 117 503 -64
2019-12-09 03:27:36 GMT 14.956604 76.364716 35,000 117 503 0
2019-12-09 03:27:24 GMT 14.968220 76.341393 34,975 117 503 0
2019-12-09 03:27:14 GMT 14.978760 76.320236 35,000 117 502 -64
2019-12-09 03:27:04 GMT 14.989792 76.298027 35,000 117 502 -64
2019-12-09 03:26:52 GMT 15.002151 76.273254 35,000 117 502 -64
2019-12-09 03:26:44 GMT 15.012131 76.253212 35,000 117 502 -64
2019-12-09 03:26:33 GMT 15.023163 76.231049 35,000 117 501 0
2019-12-09 03:26:22 GMT 15.033783 76.209747 34,975 117 500 64
2019-12-09 03:26:11 GMT 15.045639 76.185989 34,975 117 499 64
2019-12-09 03:26:01 GMT 15.055971 76.164925 34,975 116 498 -64
2019-12-09 03:25:52 GMT 15.066865 76.142265 35,000 116 499 -64
2019-12-09 03:25:41 GMT 15.077087 76.120605 35,000 115 499 -64
2019-12-09 03:25:30 GMT 15.087580 76.097977 34,975 115 499 0
2019-12-09 03:25:21 GMT 15.097775 76.075470 34,975 114 499 -64
2019-12-09 03:25:10 GMT 15.107598 76.053299 35,000 114 499 -64
2019-12-09 03:24:59 GMT 15.117462 76.030357 35,000 113 500 -64
2019-12-09 03:24:50 GMT 15.126777 76.008713 35,000 114 500 -64
2019-12-09 03:24:39 GMT 15.137009 75.985977 34,975 115 500 64
2019-12-09 03:24:28 GMT 15.148238 75.962120 34,975 116 499 0
2019-12-09 03:24:18 GMT 15.158615 75.941017 34,975 117 500 -64
2019-12-09 03:24:08 GMT 15.169559 75.919647 35,000 118 501 -64
2019-12-09 03:23:58 GMT 15.182174 75.896156 35,000 119 501 -64
2019-12-09 03:23:47 GMT 15.193680 75.875633 35,000 120 501 -64
2019-12-09 03:23:35 GMT 15.207321 75.852165 35,000 121 502 0
2019-12-09 03:23:25 GMT 15.219177 75.832115 35,000 121 502 -64
2019-12-09 03:23:15 GMT 15.231583 75.811203 35,000 121 501 0
2019-12-09 03:23:05 GMT 15.244171 75.789955 34,975 121 501 64
2019-12-09 03:22:54 GMT 15.257915 75.766823 34,975 121 502 0
2019-12-09 03:22:44 GMT 15.269460 75.747101 34,975 120 502 -64
2019-12-09 03:22:33 GMT 15.281750 75.725571 34,975 119 502 -64
2019-12-09 03:22:23 GMT 15.293564 75.703506 34,975 118 502 -64
2019-12-09 03:22:12 GMT 15.305445 75.680893 35,000 118 502 -64
2019-12-09 03:22:03 GMT 15.316589 75.659515 35,000 118 502 0
2019-12-09 03:21:51 GMT 15.329093 75.635620 35,000 118 502 64
2019-12-09 03:21:41 GMT 15.340545 75.613701 34,975 118 500 64
2019-12-09 03:21:32 GMT 15.351159 75.593445 35,000 118 499 0
2019-12-09 03:21:21 GMT 15.362274 75.572205 35,000 118 499 -64
2019-12-09 03:20:57 GMT 15.388687 75.521606 35,000 118 500 0
2019-12-09 03:20:47 GMT 15.399033 75.501808 34,975 118 500 64
2019-12-09 03:20:39 GMT 15.407953 75.484756 34,975 118 500 -64
2019-12-09 03:20:28 GMT 15.420181 75.461327 35,000 118 501 -64
2019-12-09 03:20:19 GMT 15.430670 75.441254 35,000 118 502 -64
We lost coverage of the aircraft here for a total of 12 minutes
2019-12-09 03:08:02 GMT 16.230158 73.847496 34,975 116 517 -64
2019-12-09 03:05:33 GMT 16.390064 73.516975 34,975 117 518 0
2019-12-09 03:05:19 GMT 16.405706 73.485535 35,000 117 518 0
2019-12-09 03:05:16 GMT 16.410187 73.476463 34,975 117 518 0
2019-12-09 03:05:00 GMT 16.427261 73.442131 34,975 117 518 0
2019-12-09 03:04:38 GMT 16.450882 73.394501 35,000 117 518 -64
2019-12-09 03:04:24 GMT 16.466949 73.362122 34,975 117 518 0
2019-12-09 03:03:57 GMT 16.495552 73.304359 35,000 117 517 -64
2019-12-09 03:03:54 GMT 16.498857 73.297737 35,000 117 517 -64
2019-12-09 03:03:15 GMT 16.541153 73.212410 35,000 117 513 0
2019-12-09 03:03:04 GMT 16.552505 73.189522 35,000 117 513 0
2019-12-09 03:02:55 GMT 16.563629 73.167068 35,000 117 514 -64
2019-12-09 03:01:56 GMT 16.626343 73.037155 35,000 116 517 0
2019-12-09 02:58:44 GMT 16.831940 72.604034 35,000 116 526 -64
2019-12-09 02:58:35 GMT 16.842178 72.582382 35,000 116 525 0
2019-12-09 02:57:59 GMT 16.881958 72.498245 35,000 116 525 -64
2019-12-09 02:57:51 GMT 16.888824 72.483696 35,000 116 526 0
2019-12-09 02:56:11 GMT 16.996994 72.254234 35,000 116 525 -64
2019-12-09 02:56:01 GMT 17.008575 72.229660 35,000 116 525 0
2019-12-09 02:55:49 GMT 17.020340 72.204651 34,975 115 525 0
2019-12-09 02:55:38 GMT 17.033045 72.177528 35,000 115 525 -64
2019-12-09 02:54:39 GMT 17.094635 72.046700 34,975 116 525 0
2019-12-09 02:53:11 GMT 17.190994 71.846443 34,975 116 525 0
2019-12-09 02:53:02 GMT 17.200607 71.826492 34,975 116 525 0
2019-12-09 02:52:55 GMT 17.207430 71.812180 34,975 116 525 0
2019-12-09 02:52:46 GMT 17.218231 71.789780 35,000 116 525 -64
2019-12-09 02:52:15 GMT 17.252584 71.718262 35,000 116 525 0
2019-12-09 02:52:08 GMT 17.259104 71.704674 35,000 116 525 0
2019-12-09 02:51:50 GMT 17.279022 71.663147 34,975 116 525 0
2019-12-09 02:51:47 GMT 17.282272 71.656349 34,975 116 525 0
2019-12-09 02:51:29 GMT 17.303467 71.612122 34,975 116 525 -64
2019-12-09 02:51:21 GMT 17.310974 71.596405 35,000 116 525 -64
2019-12-09 02:51:10 GMT 17.323792 71.569618 34,975 116 525 0
2019-12-09 02:51:01 GMT 17.332077 71.552315 35,000 116 526 -64
2019-12-09 02:50:23 GMT 17.374739 71.463074 34,975 116 523 0
2019-12-09 02:49:50 GMT 17.409988 71.389259 34,975 116 525 0
2019-12-09 02:49:24 GMT 17.438278 71.329987 34,975 116 528 -64
2019-12-09 02:49:16 GMT 17.446747 71.312111 35,000 116 528 -64
2019-12-09 02:48:14 GMT 17.515549 71.167648 35,000 116 529 -64
2019-12-09 02:48:05 GMT 17.523520 71.150940 34,975 116 529 -64
2019-12-09 02:47:36 GMT 17.555128 71.084488 35,000 116 529 -64
2019-12-09 02:47:15 GMT 17.577896 71.036491 35,000 116 529 64
2019-12-09 02:47:11 GMT 17.584213 71.023193 35,000 116 529 0
2019-12-09 02:47:00 GMT 17.595108 71.000206 35,000 116 528 0
2019-12-09 02:46:47 GMT 17.609024 70.970863 35,000 116 528 0
We lost coverage of the aircraft here for a total of 88 minutes
2019-12-09 01:18:26 GMT 22.818743 58.031971 35,000 105 569 0
2019-12-09 01:18:08 GMT 22.832016 57.980595 35,000 105 568 0
2019-12-09 01:17:59 GMT 22.839180 57.952930 35,000 105 568 64
2019-12-09 01:17:47 GMT 22.846481 57.924717 34,975 105 568 0
2019-12-09 01:17:38 GMT 22.853611 57.897034 35,000 105 568 0
2019-12-09 01:17:26 GMT 22.861176 57.867687 34,975 105 568 0
2019-12-09 01:17:15 GMT 22.869858 57.833912 35,000 105 569 -64
2019-12-09 01:17:06 GMT 22.875320 57.812756 34,975 105 569 -64
2019-12-09 01:17:03 GMT 22.877701 57.803417 34,975 105 569 -64
2019-12-09 01:16:57 GMT 22.884708 57.776184 35,000 105 569 0
2019-12-09 01:16:44 GMT 22.891296 57.750084 34,975 105 569 -64
2019-12-09 01:16:34 GMT 22.898394 57.721710 35,000 105 568 -64
2019-12-09 01:16:24 GMT 22.904938 57.695652 35,000 105 567 0
2019-12-09 01:16:13 GMT 22.912491 57.665440 34,975 105 566 64
2019-12-09 01:16:04 GMT 22.919529 57.637280 35,000 105 565 0
2019-12-09 01:15:53 GMT 22.926790 57.608337 35,000 105 564 -64
2019-12-09 01:15:41 GMT 22.934189 57.578598 35,000 105 564 -64
2019-12-09 01:15:31 GMT 22.941422 57.549732 35,000 105 563 0
2019-12-09 01:15:21 GMT 22.948252 57.522228 35,000 105 563 64
2019-12-09 01:15:11 GMT 22.962433 57.465286 35,000 105 563 64
2019-12-09 01:15:00 GMT 22.969385 57.437183 35,000 105 563 64
2019-12-09 01:14:49 GMT 22.976303 57.409657 34,975 105 563 64
2019-12-09 01:14:40 GMT 22.976303 57.409657 34,975 105 563 0
2019-12-09 01:14:28 GMT 22.983627 57.379044 35,000 101 567 -64
2019-12-09 01:14:25 GMT 22.985214 57.370960 34,975 98 568 0
2019-12-09 01:14:19 GMT 22.990265 57.335201 34,975 95 572 0
2019-12-09 01:14:12 GMT 22.991360 57.321167 35,000 90 576 64
2019-12-09 01:14:07 GMT 22.991360 57.321167 35,000 93 574 0
2019-12-09 01:13:58 GMT 22.992142 57.290356 34,975 89 577 64
2019-12-09 01:13:47 GMT 22.990801 57.261707 34,975 84 580 -64
2019-12-09 01:13:37 GMT 22.986832 57.229630 35,000 78 584 -64
2019-12-09 01:13:23 GMT 22.980186 57.193195 34,975 78 584 -64
2019-12-09 01:13:16 GMT 22.975937 57.170506 35,000 78 585 -64
2019-12-09 01:13:01 GMT 22.968430 57.130257 35,000 78 585 0
2019-12-09 01:12:54 GMT 22.964312 57.108154 34,975 78 585 -64
2019-12-09 01:12:40 GMT 22.957397 57.071030 35,000 78 585 -64
2019-12-09 01:12:33 GMT 22.952820 57.046310 35,000 78 585 0
2019-12-09 01:12:22 GMT 22.947739 57.019043 34,975 78 585 0
2019-12-09 01:12:10 GMT 22.940523 56.980541 34,975 78 585 0
2019-12-09 01:12:01 GMT 22.936066 56.956722 34,975 78 585 -64
2019-12-09 01:11:51 GMT 22.930527 56.927406 35,000 78 585 -64
2019-12-09 01:11:41 GMT 22.925207 56.898956 35,000 78 585 0
2019-12-09 01:11:30 GMT 22.919632 56.869328 35,000 78 585 0
2019-12-09 01:11:21 GMT 22.909754 56.816711 34,975 78 585 0
2019-12-09 01:11:09 GMT 22.908279 56.808952 35,000 78 585 -64
2019-12-09 01:10:58 GMT 22.901871 56.775047 34,975 78 586 0
2019-12-09 01:10:48 GMT 22.896484 56.746571 34,975 78 586 -64
2019-12-09 01:10:37 GMT 22.890060 56.712326 35,000 78 586 -64
2019-12-09 01:10:26 GMT 22.884567 56.683247 35,000 78 587 0
2019-12-09 01:10:16 GMT 22.878796 56.652729 34,975 78 587 0
2019-12-09 01:10:07 GMT 22.874559 56.630249 35,000 78 587 0
2019-12-09 01:10:04 GMT 22.872757 56.620739 35,000 78 587 0
2019-12-09 01:10:01 GMT 22.870649 56.609497 35,000 78 587 -64
2019-12-09 01:09:55 GMT 22.867447 56.592525 34,975 78 587 -64
2019-12-09 01:09:46 GMT 22.863014 56.569214 35,000 78 587 0
2019-12-09 01:09:43 GMT 22.861313 56.560265 35,000 78 587 -64
2019-12-09 01:09:37 GMT 22.857428 56.539814 35,000 78 587 0
2019-12-09 01:09:34 GMT 22.856094 56.532597 34,975 78 587 64
2019-12-09 01:09:31 GMT 22.854820 56.525982 34,975 78 587 0
2019-12-09 01:09:22 GMT 22.849514 56.497753 35,000 78 587 0
2019-12-09 01:09:18 GMT 22.846893 56.483658 34,975 78 587 0
2019-12-09 01:09:14 GMT 22.845419 56.475880 35,000 78 587 0
2019-12-09 01:09:08 GMT 22.842316 56.460037 34,975 76 587 0
2019-12-09 01:09:00 GMT 22.837646 56.438267 35,000 68 588 -64
2019-12-09 01:08:53 GMT 22.832010 56.414593 35,000 75 587 -64
2019-12-09 01:08:32 GMT 22.815765 56.356270 35,000 68 588 -64
2019-12-09 01:08:27 GMT 22.811993 56.344299 34,975 68 588 0
2019-12-09 01:08:23 GMT 22.808502 56.333771 35,000 68 588 -64
2019-12-09 01:08:19 GMT 22.798819 56.306255 35,000 68 588 -64
2019-12-09 01:08:12 GMT 22.797003 56.301319 34,975 68 588 0
2019-12-09 01:08:00 GMT 22.784294 56.266888 34,975 68 588 0
2019-12-09 01:07:52 GMT 22.770329 56.229145 35,000 68 588 -64
2019-12-09 01:07:45 GMT 22.770329 56.229145 35,000 68 588 -64
2019-12-09 01:07:39 GMT 22.764175 56.212448 34,975 68 588 -64
2019-12-09 01:07:29 GMT 22.753876 56.184532 35,000 68 588 0
2019-12-09 01:07:20 GMT 22.743467 56.156361 35,000 68 588 -64
2019-12-09 01:07:16 GMT 22.739914 56.146828 35,000 68 588 -64
2019-12-09 01:07:03 GMT 22.727966 56.114571 35,000 68 588 0
2019-12-09 01:06:57 GMT 22.720917 56.095444 34,975 68 587 0
2019-12-09 01:06:53 GMT 22.717072 56.085056 34,975 68 587 0
2019-12-09 01:06:47 GMT 22.711302 56.069489 35,000 68 587 -64
2019-12-09 01:06:39 GMT 22.703339 56.047951 34,975 68 587 -64
2019-12-09 01:06:34 GMT 22.697334 56.031849 34,975 68 587 -64
2019-12-09 01:06:15 GMT 22.678574 55.981335 35,000 68 588 -64
2019-12-09 01:06:10 GMT 22.673407 55.967457 35,000 68 588 0
2019-12-09 01:06:06 GMT 22.669590 55.957081 35,000 68 587 64
2019-12-09 01:05:58 GMT 22.660465 55.932568 34,975 68 586 0
2019-12-09 01:05:55 GMT 22.657812 55.925446 34,975 68 586 0
2019-12-09 01:05:52 GMT 22.654495 55.916466 34,975 68 586 0
2019-12-09 01:05:40 GMT 22.642731 55.884903 35,000 68 586 0
2019-12-09 01:05:31 GMT 22.633512 55.860138 34,975 68 587 -64
2019-12-09 01:05:24 GMT 22.627350 55.843506 34,975 68 587 -64
2019-12-09 01:05:13 GMT 22.616776 55.815243 34,975 68 587 -64
2019-12-09 01:05:06 GMT 22.608746 55.793713 34,975 68 587 -64
2019-12-09 01:04:56 GMT 22.599203 55.768177 35,000 68 587 -64
2019-12-09 01:04:48 GMT 22.582809 55.724403 34,975 68 585 -64
2019-12-09 01:04:40 GMT 22.582809 55.724403 34,975 68 586 -64
2019-12-09 01:04:31 GMT 22.573786 55.700275 35,000 68 585 -64
2019-12-09 01:04:21 GMT 22.562714 55.670719 35,000 68 585 -64
2019-12-09 01:04:07 GMT 22.548786 55.633595 35,000 68 585 -64
2019-12-09 01:04:00 GMT 22.542456 55.616810 35,000 67 584 0
2019-12-09 01:03:54 GMT 22.536255 55.600258 35,000 67 584 0
2019-12-09 01:03:50 GMT 22.530865 55.585938 35,000 67 584 0
2019-12-09 01:03:45 GMT 22.526733 55.574841 34,975 68 585 0
2019-12-09 01:03:35 GMT 22.515930 55.546127 34,975 67 585 0
2019-12-09 01:03:31 GMT 22.504421 55.515491 34,975 67 585 0
2019-12-09 01:03:23 GMT 22.504421 55.515491 35,000 67 585 0
2019-12-09 01:03:19 GMT 22.498993 55.501133 34,975 67 586 -64
2019-12-09 01:03:05 GMT 22.485947 55.467075 35,000 67 585 -64
2019-12-09 01:02:57 GMT 22.476837 55.441406 35,000 73 586 0
2019-12-09 01:02:47 GMT 22.469833 55.415852 35,000 73 586 0
2019-12-09 01:02:41 GMT 22.465969 55.396984 35,000 79 585 0
2019-12-09 01:02:27 GMT 22.461365 55.359608 34,975 92 582 -64
2019-12-09 01:02:20 GMT 22.460541 55.336338 34,975 92 582 -64
2019-12-09 01:02:08 GMT 22.461826 55.304668 34,975 98 579 64
2019-12-09 01:01:55 GMT 22.466995 55.264229 34,975 98 580 0
2019-12-09 01:01:46 GMT 22.470200 55.240757 35,000 98 580 0
2019-12-09 01:01:38 GMT 22.473770 55.214939 34,975 98 581 0
2019-12-09 01:01:27 GMT 22.477661 55.186825 34,975 98 581 0
2019-12-09 01:01:17 GMT 22.482170 55.153809 34,975 98 582 0
2019-12-09 01:01:03 GMT 22.487104 55.117596 35,000 98 582 -64
2019-12-09 01:00:59 GMT 22.488688 55.106098 34,975 98 582 -64
2019-12-09 01:00:55 GMT 22.490736 55.091145 34,975 98 582 -64
2019-12-09 01:00:45 GMT 22.494322 55.064697 35,000 98 582 -64
2019-12-09 01:00:36 GMT 22.498278 55.035961 35,000 98 582 0
2019-12-09 01:00:24 GMT 22.502281 55.006664 34,975 98 582 64
2019-12-09 01:00:14 GMT 22.506330 54.976757 34,975 98 582 0
2019-12-09 01:00:03 GMT 22.510574 54.945423 35,000 98 582 0
2019-12-09 00:59:55 GMT 22.513641 54.923000 35,000 98 583 -64
2019-12-09 00:59:52 GMT 22.514832 54.914364 34,975 98 583 0
2019-12-09 00:59:47 GMT 22.516945 54.898529 35,000 98 583 -64
2019-12-09 00:59:44 GMT 22.518528 54.886982 35,000 98 583 -64
2019-12-09 00:59:31 GMT 22.523043 54.853619 35,000 98 583 -64
2019-12-09 00:59:23 GMT 22.526184 54.830269 35,000 98 583 0
2019-12-09 00:59:11 GMT 22.530991 54.794613 35,000 98 583 0
2019-12-09 00:59:00 GMT 22.535379 54.762066 34,975 98 581 -64
2019-12-09 00:58:52 GMT 22.538637 54.737904 34,975 98 581 0
2019-12-09 00:58:41 GMT 22.542921 54.705708 35,000 98 581 -64
2019-12-09 00:58:30 GMT 22.546921 54.676159 35,000 98 580 0
2019-12-09 00:58:25 GMT 22.548973 54.660900 35,000 98 580 -64
2019-12-09 00:58:17 GMT 22.552185 54.636791 35,000 98 580 -64
2019-12-09 00:58:09 GMT 22.554886 54.616749 34,975 98 580 0
2019-12-09 00:58:05 GMT 22.556234 54.606426 34,975 98 580 0
2019-12-09 00:57:58 GMT 22.558935 54.586334 35,000 98 579 0
2019-12-09 00:57:54 GMT 22.560471 54.574841 35,000 98 580 -64
2019-12-09 00:57:48 GMT 22.562897 54.556759 35,000 98 580 -64
2019-12-09 00:57:43 GMT 22.564894 54.541576 34,975 98 580 -64
2019-12-09 00:57:37 GMT 22.567127 54.524944 35,000 98 580 0
2019-12-09 00:57:28 GMT 22.570946 54.496258 34,975 98 580 -64
2019-12-09 00:57:13 GMT 22.576065 54.457806 35,000 98 580 -64
2019-12-09 00:57:02 GMT 22.580200 54.426517 35,000 98 580 0
2019-12-09 00:56:54 GMT 22.583542 54.401253 35,000 98 580 0
2019-12-09 00:56:44 GMT 22.587341 54.372585 35,000 98 580 0
2019-12-09 00:56:35 GMT 22.590776 54.346466 34,975 98 579 0
2019-12-09 00:56:25 GMT 22.594940 54.314610 34,975 98 579 0
2019-12-09 00:56:12 GMT 22.599203 54.282227 35,000 98 580 -64
2019-12-09 00:56:04 GMT 22.602741 54.255219 35,000 98 580 -64
2019-12-09 00:55:52 GMT 22.606651 54.225361 35,000 98 580 -64
2019-12-09 00:55:42 GMT 22.611120 54.191437 35,000 98 581 -64
2019-12-09 00:55:30 GMT 22.615082 54.161247 35,000 98 581 -64
2019-12-09 00:55:21 GMT 22.618744 54.133083 35,000 98 580 64
2019-12-09 00:55:07 GMT 22.623688 54.095181 34,975 98 580 64
2019-12-09 00:54:57 GMT 22.627319 54.067333 34,975 97 579 64
2019-12-09 00:54:27 GMT 22.638538 53.980610 35,000 97 581 -64
2019-12-09 00:54:24 GMT 22.639704 53.971405 35,000 97 581 -64
2019-12-09 00:54:18 GMT 22.642181 53.952660 35,000 97 582 0
2019-12-09 00:54:15 GMT 22.643280 53.944019 34,975 97 582 0
2019-12-09 00:54:07 GMT 22.646082 53.922424 35,000 97 582 0
2019-12-09 00:53:57 GMT 22.649805 53.893585 35,000 97 583 64
2019-12-09 00:53:46 GMT 22.653854 53.862122 34,975 97 583 0
2019-12-09 00:53:35 GMT 22.657812 53.831226 34,975 97 583 -64
2019-12-09 00:53:21 GMT 22.663399 53.787334 34,975 97 583 0
2019-12-09 00:53:13 GMT 22.665913 53.767700 35,000 97 583 -128
2019-12-09 00:53:05 GMT 22.669170 53.742268 35,000 97 582 0
2019-12-09 00:52:55 GMT 22.672895 53.713428 35,000 97 581 -64
2019-12-09 00:52:49 GMT 22.675507 53.692982 35,000 97 580 64
2019-12-09 00:52:44 GMT 22.676992 53.681744 35,000 97 581 0
2019-12-09 00:52:38 GMT 22.679552 53.661602 34,975 97 580 64
2019-12-09 00:52:33 GMT 22.680908 53.650986 34,975 97 580 64
2019-12-09 00:52:23 GMT 22.684673 53.621418 34,975 97 579 0
2019-12-09 00:52:07 GMT 22.690292 53.576977 35,000 97 579 0
2019-12-09 00:52:01 GMT 22.692633 53.558350 34,975 97 579 0
2019-12-09 00:51:50 GMT 22.696518 53.527687 34,975 97 579 0
2019-12-09 00:51:40 GMT 22.701416 53.488636 34,975 97 580 0
2019-12-09 00:51:32 GMT 22.703384 53.473156 34,975 97 580 -64
2019-12-09 00:51:19 GMT 22.707504 53.440346 35,000 97 582 -64
2019-12-09 00:51:06 GMT 22.712418 53.401440 35,000 97 583 0
2019-12-09 00:51:03 GMT 22.713675 53.391621 34,975 97 582 64
2019-12-09 00:50:55 GMT 22.716328 53.370258 35,000 97 583 0
2019-12-09 00:50:46 GMT 22.719681 53.343708 35,000 97 584 -64
2019-12-09 00:50:38 GMT 22.722706 53.319447 35,000 97 584 -64
2019-12-09 00:50:29 GMT 22.725677 53.295425 35,000 97 584 0
2019-12-09 00:50:23 GMT 22.727921 53.277740 34,975 97 584 0
2019-12-09 00:50:18 GMT 22.729828 53.262127 34,975 97 584 0
2019-12-09 00:50:12 GMT 22.732040 53.244438 35,000 97 584 0
2019-12-09 00:50:06 GMT 22.735245 53.218922 35,000 97 585 0
2019-12-09 00:49:56 GMT 22.737883 53.197784 35,000 97 585 0
2019-12-09 00:49:53 GMT 22.738953 53.189087 34,975 97 585 -64
2019-12-09 00:49:45 GMT 22.742752 53.158646 35,000 97 585 -64
2019-12-09 00:49:34 GMT 22.745796 53.134003 35,000 97 585 -64
2019-12-09 00:49:30 GMT 22.746960 53.124744 35,000 97 585 0
2019-12-09 00:49:21 GMT 22.750122 53.098972 35,000 97 584 0
2019-12-09 00:49:16 GMT 22.752640 53.078697 35,000 97 583 64
2019-12-09 00:49:11 GMT 22.753922 53.068310 34,975 97 582 64
2019-12-09 00:49:05 GMT 22.756119 53.050381 34,975 97 582 64
2019-12-09 00:48:59 GMT 22.758039 53.035126 34,975 97 580 64
2019-12-09 00:48:55 GMT 22.759949 53.019562 34,975 97 580 0
2019-12-09 00:48:50 GMT 22.761484 53.006897 34,975 97 580 -64
2019-12-09 00:48:43 GMT 22.763718 52.988758 35,000 97 580 -64
2019-12-09 00:48:39 GMT 22.765116 52.977497 35,000 97 580 -64
2019-12-09 00:48:29 GMT 22.768799 52.947262 35,000 97 580 -64
2019-12-09 00:48:21 GMT 22.773331 52.910355 34,975 97 581 0
2019-12-09 00:48:12 GMT 22.774658 52.899422 34,975 97 581 0
2019-12-09 00:48:08 GMT 22.776194 52.887012 34,975 97 581 0
2019-12-09 00:48:02 GMT 22.778412 52.868809 34,975 97 581 -64
2019-12-09 00:47:57 GMT 22.780106 52.854977 35,000 97 581 -64
2019-12-09 00:47:50 GMT 22.782440 52.835899 34,975 97 582 -64
2019-12-09 00:47:46 GMT 22.783768 52.824913 35,000 97 582 -64
2019-12-09 00:47:42 GMT 22.785877 52.807873 35,000 97 582 -64
2019-12-09 00:47:38 GMT 22.787933 52.790806 35,000 97 582 -64
2019-12-09 00:47:28 GMT 22.793335 52.746910 35,000 97 583 0
2019-12-09 00:47:21 GMT 22.793335 52.746910 34,975 97 581 64
2019-12-09 00:47:17 GMT 22.794067 52.741116 35,000 97 581 64
2019-12-09 00:47:13 GMT 22.795486 52.729580 34,975 97 581 64
2019-12-09 00:47:05 GMT 22.798353 52.705688 34,975 97 580 0
2019-12-09 00:46:55 GMT 22.802076 52.675220 35,000 97 578 0
2019-12-09 00:46:39 GMT 22.807665 52.629345 35,000 97 577 0
2019-12-09 00:46:36 GMT 22.808922 52.619019 35,000 97 577 0
2019-12-09 00:46:33 GMT 22.809620 52.613270 35,000 97 577 0
2019-12-09 00:46:23 GMT 22.813297 52.583466 35,000 97 578 0
2019-12-09 00:46:12 GMT 22.816694 52.553558 35,000 94 580 0
2019-12-09 00:46:03 GMT 22.819199 52.528530 35,000 93 581 64
2019-12-09 00:45:46 GMT 22.823090 52.478146 35,000 94 580 0
2019-12-09 00:45:39 GMT 22.824326 52.456673 34,975 92 581 -64
2019-12-09 00:45:29 GMT 22.825562 52.428806 35,000 92 581 -64
2019-12-09 00:45:15 GMT 22.826517 52.388866 35,000 91 583 -64
2019-12-09 00:45:09 GMT 22.826891 52.371368 35,000 91 584 -64
2019-12-09 00:44:58 GMT 22.827541 52.339275 35,000 91 584 -64
2019-12-09 00:44:47 GMT 22.828217 52.307407 35,000 91 585 0
2019-12-09 00:44:42 GMT 22.828566 52.289581 35,000 91 584 -64
2019-12-09 00:44:39 GMT 22.828705 52.281952 35,000 91 585 0
2019-12-09 00:44:28 GMT 22.829361 52.251225 34,975 91 584 0
2019-12-09 00:44:18 GMT 22.829962 52.219952 34,975 91 584 -64
2019-12-09 00:44:06 GMT 22.830597 52.185207 35,000 91 584 -64
2019-12-09 00:43:57 GMT 22.831079 52.160339 34,975 91 584 -64
2019-12-09 00:43:44 GMT 22.831823 52.121174 35,000 91 584 -64
2019-12-09 00:43:22 GMT 22.833035 52.056274 34,975 91 584 64
2019-12-09 00:43:15 GMT 22.833406 52.036438 34,975 91 584 64
2019-12-09 00:43:02 GMT 22.834076 51.998142 35,000 91 584 -64
2019-12-09 00:42:54 GMT 22.834478 51.975658 35,000 91 584 -64
2019-12-09 00:42:50 GMT 22.834671 51.964283 35,000 91 584 -64
2019-12-09 00:42:42 GMT 22.835083 51.941784 35,000 91 584 -64
2019-12-09 00:42:33 GMT 22.835587 51.915195 35,000 91 584 0
2019-12-09 00:42:20 GMT 22.836227 51.877792 34,975 91 584 64
2019-12-09 00:42:06 GMT 22.836914 51.836891 34,975 90 584 -64
2019-12-09 00:41:40 GMT 22.838249 51.760712 35,000 91 583 64
2019-12-09 00:41:28 GMT 22.838854 51.724548 34,975 91 582 64
2019-12-09 00:41:16 GMT 22.839432 51.689327 34,975 90 582 0
2019-12-09 00:41:09 GMT 22.839785 51.668652 35,000 91 581 -64
2019-12-09 00:40:57 GMT 22.840389 51.633198 34,975 91 581 0
2019-12-09 00:40:46 GMT 22.840902 51.602985 35,000 90 581 -64
2019-12-09 00:40:42 GMT 22.841087 51.591339 35,000 90 581 -64
2019-12-09 00:40:38 GMT 22.841263 51.580013 35,000 90 581 -64
2019-12-09 00:40:27 GMT 22.841787 51.546021 35,000 91 581 -64
2019-12-09 00:40:15 GMT 22.842579 51.511738 34,975 91 580 0
2019-12-09 00:40:06 GMT 22.843414 51.485329 34,975 92 580 0
2019-12-09 00:39:51 GMT 22.845200 51.442932 35,000 94 577 0
2019-12-09 00:39:22 GMT 22.850327 51.359386 34,975 94 581 -64
2019-12-09 00:39:14 GMT 22.851974 51.335014 35,000 94 580 -64
2019-12-09 00:39:01 GMT 22.854538 51.297913 35,000 94 579 -64
2019-12-09 00:38:53 GMT 22.856049 51.275341 35,000 94 578 0
2019-12-09 00:38:41 GMT 22.860687 51.208191 35,000 94 577 -64
2019-12-09 00:38:30 GMT 22.860687 51.208191 35,000 94 576 0
2019-12-09 00:38:22 GMT 22.862183 51.186050 35,000 94 575 0
2019-12-09 00:37:26 GMT 22.872986 51.025650 34,975 94 576 0
2019-12-09 00:37:04 GMT 22.877426 50.959435 34,975 94 577 0
2019-12-09 00:36:57 GMT 22.878609 50.941265 34,975 94 577 0
2019-12-09 00:36:46 GMT 22.880796 50.908405 34,975 94 577 0
2019-12-09 00:36:34 GMT 22.883057 50.874638 34,975 94 578 -64
2019-12-09 00:36:09 GMT 22.887779 50.802662 35,000 94 579 -64
2019-12-09 00:35:57 GMT 22.890015 50.768822 34,975 94 579 -64
2019-12-09 00:35:43 GMT 22.892761 50.726074 34,975 93 578 -64
2019-12-09 00:35:33 GMT 22.894592 50.697758 34,975 93 577 -64
2019-12-09 00:35:23 GMT 22.896393 50.669811 35,000 93 576 -64
2019-12-09 00:35:06 GMT 22.899605 50.620319 35,000 93 576 -64
2019-12-09 00:35:01 GMT 22.900536 50.605927 35,000 93 575 -64
2019-12-09 00:34:43 GMT 22.903748 50.555737 34,975 94 573 -64
2019-12-09 00:34:37 GMT 22.904865 50.538227 35,000 93 572 -64
2019-12-09 00:34:30 GMT 22.906265 50.516235 35,000 93 572 0
2019-12-09 00:34:18 GMT 22.908356 50.483398 34,975 93 571 0
2019-12-09 00:34:08 GMT 22.910294 50.453465 34,975 93 570 0
2019-12-09 00:33:56 GMT 22.912313 50.421295 34,975 93 570 0
2019-12-09 00:33:45 GMT 22.914276 50.390293 35,000 93 570 -64
2019-12-09 00:33:37 GMT 22.915758 50.366619 35,000 93 571 0
2019-12-09 00:33:28 GMT 22.917389 50.341251 34,975 93 571 -64
2019-12-09 00:33:16 GMT 22.919495 50.306995 35,000 93 572 0
2019-12-09 00:33:07 GMT 22.921206 50.279846 35,000 93 572 0
2019-12-09 00:32:54 GMT 22.923578 50.242107 35,000 93 572 64
2019-12-09 00:32:31 GMT 22.927505 50.178955 34,975 93 573 -64
2019-12-09 00:32:23 GMT 22.929026 50.154011 35,000 93 574 0
2019-12-09 00:32:13 GMT 22.930700 50.127056 34,975 93 574 64
2019-12-09 00:32:04 GMT 22.932425 50.098927 34,975 93 575 0
2019-12-09 00:31:47 GMT 22.935263 50.052338 35,000 93 575 -64
2019-12-09 00:31:38 GMT 22.936844 50.026695 35,000 93 576 -64
2019-12-09 00:31:33 GMT 22.937824 50.010273 35,000 93 577 0
2019-12-09 00:31:22 GMT 22.939682 49.979454 34,975 93 577 64
2019-12-09 00:31:07 GMT 22.942337 49.936207 34,975 93 577 0
2019-12-09 00:30:55 GMT 22.944481 49.900768 34,975 93 577 0
2019-12-09 00:30:49 GMT 22.945496 49.883175 35,000 93 577 -64
2019-12-09 00:30:39 GMT 22.947189 49.854858 35,000 93 578 -64
2019-12-09 00:30:28 GMT 22.949112 49.823097 35,000 93 578 0
2019-12-09 00:30:17 GMT 22.950943 49.792538 35,000 93 577 -64
2019-12-09 00:30:06 GMT 22.952814 49.761097 35,000 93 577 0
2019-12-09 00:29:59 GMT 22.954117 49.739124 35,000 93 577 -64
2019-12-09 00:29:48 GMT 22.955933 49.707996 35,000 93 577 0
2019-12-09 00:29:35 GMT 22.958084 49.671886 34,975 93 577 0
2019-12-09 00:29:27 GMT 22.959549 49.647068 35,000 93 577 0
2019-12-09 00:29:16 GMT 22.961426 49.614758 34,975 93 577 0
2019-12-09 00:29:06 GMT 22.963148 49.585571 35,000 93 578 -64
2019-12-09 00:28:54 GMT 22.965088 49.551235 35,000 93 578 -64
2019-12-09 00:28:45 GMT 22.966553 49.526367 35,000 93 578 -64
2019-12-09 00:28:34 GMT 22.968315 49.495441 35,000 93 578 -64
2019-12-09 00:28:25 GMT 22.969852 49.467163 35,000 93 577 64
2019-12-09 00:28:14 GMT 22.971634 49.436279 34,975 93 576 -64
2019-12-09 00:28:02 GMT 22.973621 49.400890 35,000 93 576 -64
2019-12-09 00:27:52 GMT 22.975113 49.374058 34,975 93 576 0
2019-12-09 00:27:41 GMT 22.976881 49.342091 35,000 93 576 -64
2019-12-09 00:27:32 GMT 22.978317 49.315830 35,000 93 576 -64
2019-12-09 00:27:21 GMT 22.980057 49.283520 35,000 93 577 -64
2019-12-09 00:27:10 GMT 22.981676 49.253185 35,000 93 577 0
2019-12-09 00:27:00 GMT 22.983212 49.223736 34,975 93 577 0
2019-12-09 00:26:49 GMT 22.984842 49.192505 35,000 93 577 -128
2019-12-09 00:26:39 GMT 22.986423 49.163055 35,000 93 577 -64
2019-12-09 00:26:29 GMT 22.987930 49.133907 35,000 93 576 -64
2019-12-09 00:26:18 GMT 22.989578 49.103294 35,000 93 577 0
2019-12-09 00:26:07 GMT 22.991364 49.070984 34,975 93 577 0
2019-12-09 00:25:58 GMT 22.992943 49.043629 34,975 93 576 -64
2019-12-09 00:25:46 GMT 22.995176 49.010212 35,000 94 576 -64
2019-12-09 00:25:35 GMT 22.997452 48.979446 35,000 94 575 0
2019-12-09 00:25:25 GMT 22.999832 48.948936 35,000 95 576 0
2019-12-09 00:25:16 GMT 23.001926 48.923340 34,975 94 576 0
2019-12-09 00:25:03 GMT 23.004951 48.885956 34,975 94 577 -64
2019-12-09 00:24:54 GMT 23.006973 48.860947 35,000 94 577 -64
2019-12-09 00:24:42 GMT 23.009903 48.824638 34,975 94 577 0
2019-12-09 00:24:34 GMT 23.011795 48.801319 34,975 94 577 -64
2019-12-09 00:24:22 GMT 23.014481 48.767612 35,000 94 577 -64
2019-12-09 00:24:09 GMT 23.017456 48.730759 35,000 94 577 -64
2019-12-09 00:23:58 GMT 23.019896 48.699951 35,000 94 577 -64
2019-12-09 00:23:51 GMT 23.021524 48.679810 35,000 94 577 0
2019-12-09 00:23:13 GMT 23.030228 48.570007 34,975 94 577 0
2019-12-09 00:23:06 GMT 23.031784 48.550381 34,975 94 578 -64
2019-12-09 00:22:59 GMT 23.033432 48.529610 34,975 94 579 -64
2019-12-09 00:21:45 GMT 23.050201 48.314617 34,975 94 579 64
2019-12-09 00:20:56 GMT 23.061676 48.165810 35,000 94 579 64
2019-12-09 00:20:44 GMT 23.063934 48.136395 34,975 94 579 64
We lost coverage of the aircraft here for a total of 7 minutes
2019-12-09 00:13:53 GMT 23.150707 46.939137 35,000 94 580 0
2019-12-09 00:13:30 GMT 23.154922 46.877914 34,975 94 579 -64
2019-12-09 00:10:09 GMT 23.193815 46.292469 34,975 93 581 -64
2019-12-09 00:10:05 GMT 23.194656 46.278809 35,000 93 581 -64

Making use of Plane Finder data

You are free to use the raw flight data, aircraft information and images provided in this report for your own purposes provided the data is correctly attributed to Plane Finder. We ask that you please credit Plane Finder and link to planefinder.net in close proximity to the content.

Optionally one of the following logos (no smaller then 150x24px) can be used and must link to planefinder.net

Embedding the Plane Finder map

You are welcome to embed the Plane Finder playback map on your website to offer visitors a more interactive experience. We suggest using the following HTML code:

<iframe src="//planefinder.net/data/report/SV836-HZ-ARB-7700-squawk-2019-12-09/map" width="800" height="600" seamless="seamless"></iframe>

Where our data comes from

Plane Finder has a global network of data feeds and antenna radars that receive data broadcast directly from aircraft. The primary technologies used are ADS-B and MLAT. We also show feeds from the FAA and a FLARM glider feed.

Click here to find out more about the Plane Finder network.

How we collect our data